^^
B2 Weather Station Historical Data
Daily Summary for January 1, 2018 Units:  Both    English   Metric
Daily Weekly Monthly Yearly Custom
  High: Low: Average:
Temperature: -1.9 °F /  -18.8 °C -11.3 °F /  -24.1 °C -7.1 °F /  -21.7 °C
Dew Point: -9.0 °F /  -22.8 °C -16.9 °F /  -27.2 °C -13.2 °F /  -25.1 °C
Humidity: 80% 68% 74%
Wind Speed: 15.0mph /  24.1km/h - 8.6mph /  13.8km/h
Wind Gust: 15.0mph /  24.1km/h - -
Wind- - West
Pressure: 30.83 in /  1043.9 hPa 30.73 in /  1040.5 hPa -
Precipitation: 0.00 in /  0 mm    
Historical Graphs
 
 
Tabular Data for January 1, 2018
Time Temperature Dew Point Pressure Wind Wind Speed Wind Gust Humidity Rainfall Rate (Hourly) solar
00:02 -3.4 °F /  -19.7 °C -9.6 °F /  -23.1 °C 30.73in /  1040.5hPa WNW 11.5mph /  18.5km/h 11.5mph /  18.5km/h 74% 0.00in /  0mm 0.0 W/m2
00:03 -3.5 °F /  -19.7 °C -9.7 °F /  -23.2 °C 30.73in /  1040.5hPa West 5.8mph /  9.3km/h 5.8mph /  9.3km/h 74% 0.00in /  0mm 0.0 W/m2
00:07 -3.6 °F /  -19.8 °C -9.8 °F /  -23.2 °C 30.73in /  1040.5hPa WNW 6.9mph /  11.1km/h 6.9mph /  11.1km/h 74% 0.00in /  0mm 0.0 W/m2
00:09 -3.6 °F /  -19.8 °C -9.8 °F /  -23.2 °C 30.73in /  1040.5hPa WNW 13.8mph /  22.2km/h 13.8mph /  22.2km/h 74% 0.00in /  0mm 0.0 W/m2
00:14 -3.7 °F /  -19.8 °C -9.9 °F /  -23.3 °C 30.73in /  1040.5hPa WNW 5.8mph /  9.3km/h 5.8mph /  9.3km/h 74% 0.00in /  0mm 0.0 W/m2
00:16 -3.8 °F /  -19.9 °C -10.0 °F /  -23.3 °C 30.73in /  1040.5hPa NW 9.2mph /  14.8km/h 9.2mph /  14.8km/h 74% 0.00in /  0mm 0.0 W/m2
00:19 -3.9 °F /  -19.9 °C -10.1 °F /  -23.4 °C 30.73in /  1040.5hPa WNW 11.5mph /  18.5km/h 11.5mph /  18.5km/h 74% 0.00in /  0mm 0.0 W/m2
00:21 -3.8 °F /  -19.9 °C -10.0 °F /  -23.3 °C 30.73in /  1040.5hPa WNW 11.5mph /  18.5km/h 11.5mph /  18.5km/h 74% 0.00in /  0mm 0.0 W/m2
00:26 -3.8 °F /  -19.9 °C -10.0 °F /  -23.3 °C 30.73in /  1040.5hPa NW 10.4mph /  16.7km/h 10.4mph /  16.7km/h 74% 0.00in /  0mm 0.0 W/m2
00:30 -3.8 °F /  -19.9 °C -10.0 °F /  -23.3 °C 30.73in /  1040.5hPa WNW 12.7mph /  20.4km/h 12.7mph /  20.4km/h 74% 0.00in /  0mm 0.0 W/m2
00:35 -3.8 °F /  -19.9 °C -10.0 °F /  -23.3 °C 30.73in /  1040.5hPa NW 11.5mph /  18.5km/h 11.5mph /  18.5km/h 74% 0.00in /  0mm 0.0 W/m2
00:36 -3.8 °F /  -19.9 °C -10.0 °F /  -23.3 °C 30.73in /  1040.5hPa NW 9.2mph /  14.8km/h 9.2mph /  14.8km/h 74% 0.00in /  0mm 0.0 W/m2
00:41 -4.0 °F /  -20 °C -10.2 °F /  -23.4 °C 30.73in /  1040.5hPa West 9.2mph /  14.8km/h 9.2mph /  14.8km/h 74% 0.00in /  0mm 0.0 W/m2
00:42 -4.0 °F /  -20 °C -10.2 °F /  -23.4 °C 30.73in /  1040.5hPa WNW 11.5mph /  18.5km/h 11.5mph /  18.5km/h 74% 0.00in /  0mm 0.0 W/m2
00:44 -4.1 °F /  -20.1 °C -10.3 °F /  -23.5 °C 30.73in /  1040.5hPa West 11.5mph /  18.5km/h 11.5mph /  18.5km/h 74% 0.00in /  0mm 0.0 W/m2
00:47 -4.2 °F /  -20.1 °C -10.4 °F /  -23.6 °C 30.74in /  1040.9hPa WNW 10.0mph /  16.1km/h 10.0mph /  16.1km/h 74% 0.00in /  0mm 0.0 W/m2
00:52 -4.4 °F /  -20.2 °C -10.6 °F /  -23.7 °C 30.74in /  1040.9hPa NW 10.4mph /  16.7km/h 10.4mph /  16.7km/h 74% 0.00in /  0mm 0.0 W/m2
00:53 -4.4 °F /  -20.2 °C -10.6 °F /  -23.7 °C 30.74in /  1040.9hPa WNW 10.4mph /  16.7km/h 10.4mph /  16.7km/h 74% 0.00in /  0mm 0.0 W/m2
00:57 -4.5 °F /  -20.3 °C -10.7 °F /  -23.7 °C 30.74in /  1040.9hPa WNW 9.2mph /  14.8km/h 9.2mph /  14.8km/h 74% 0.00in /  0mm 0.0 W/m2
00:58 -4.6 °F /  -20.3 °C -10.8 °F /  -23.8 °C 30.74in /  1040.9hPa WNW 11.0mph /  17.7km/h 11.0mph /  17.7km/h 74% 0.00in /  0mm 0.0 W/m2
00:59 -4.6 °F /  -20.3 °C -10.8 °F /  -23.8 °C 30.74in /  1040.9hPa West 11.5mph /  18.5km/h 11.5mph /  18.5km/h 74% 0.00in /  0mm 0.0 W/m2
01:02 -4.6 °F /  -20.3 °C -11.1 °F /  -23.9 °C 30.74in /  1040.9hPa WNW 10.4mph /  16.7km/h 10.4mph /  16.7km/h 73% 0.00in /  0mm 0.0 W/m2
01:05 -4.7 °F /  -20.4 °C -11.2 °F /  -24 °C 30.74in /  1040.9hPa WNW 9.2mph /  14.8km/h 9.2mph /  14.8km/h 73% 0.00in /  0mm 0.0 W/m2
01:09 -4.8 °F /  -20.4 °C -11.3 °F /  -24.1 °C 30.74in /  1040.9hPa WNW 8.1mph /  13km/h 8.1mph /  13km/h 73% 0.00in /  0mm 0.0 W/m2
01:12 -4.8 °F /  -20.4 °C -11.3 °F /  -24.1 °C 30.74in /  1040.9hPa WNW 11.5mph /  18.5km/h 11.5mph /  18.5km/h 73% 0.00in /  0mm 0.0 W/m2
01:15 -4.9 °F /  -20.5 °C -11.3 °F /  -24.1 °C 30.74in /  1040.9hPa WNW 11.5mph /  18.5km/h 11.5mph /  18.5km/h 73% 0.00in /  0mm 0.0 W/m2
01:19 -5.0 °F /  -20.6 °C -11.4 °F /  -24.1 °C 30.74in /  1040.9hPa WNW 9.2mph /  14.8km/h 9.2mph /  14.8km/h 73% 0.00in /  0mm 0.0 W/m2
01:20 -5.1 °F /  -20.6 °C -11.5 °F /  -24.2 °C 30.74in /  1040.9hPa WNW 10.4mph /  16.7km/h 10.4mph /  16.7km/h 73% 0.00in /  0mm 0.0 W/m2
01:24 -5.2 °F /  -20.7 °C -11.6 °F /  -24.2 °C 30.74in /  1040.9hPa WNW 11.5mph /  18.5km/h 11.5mph /  18.5km/h 73% 0.00in /  0mm 0.0 W/m2
01:29 -5.2 °F /  -20.7 °C -11.6 °F /  -24.2 °C 30.74in /  1040.9hPa WNW 9.0mph /  14.5km/h 9.0mph /  14.5km/h 73% 0.00in /  0mm 0.0 W/m2
01:32 -5.3 °F /  -20.7 °C -11.7 °F /  -24.3 °C 30.74in /  1040.9hPa NW 13.8mph /  22.2km/h 13.8mph /  22.2km/h 73% 0.00in /  0mm 0.0 W/m2
01:33 -5.3 °F /  -20.7 °C -11.7 °F /  -24.3 °C 30.74in /  1040.9hPa WNW 13.8mph /  22.2km/h 13.8mph /  22.2km/h 73% 0.00in /  0mm 0.0 W/m2
01:38 -5.4 °F /  -20.8 °C -12.1 °F /  -24.5 °C 30.74in /  1040.9hPa WNW 11.5mph /  18.5km/h 11.5mph /  18.5km/h 72% 0.00in /  0mm 0.0 W/m2
01:39 -5.4 °F /  -20.8 °C -12.1 °F /  -24.5 °C 30.74in /  1040.9hPa WNW 10.4mph /  16.7km/h 10.4mph /  16.7km/h 72% 0.00in /  0mm 0.0 W/m2
01:44 -5.5 °F /  -20.8 °C -12.2 °F /  -24.6 °C 30.74in /  1040.9hPa WNW 12.7mph /  20.4km/h 12.7mph /  20.4km/h 72% 0.00in /  0mm 0.0 W/m2
01:45 -5.5 °F /  -20.8 °C -12.2 °F /  -24.6 °C 30.75in /  1041.2hPa WNW 11.5mph /  18.5km/h 11.5mph /  18.5km/h 72% 0.00in /  0mm 0.0 W/m2
01:46 -5.5 °F /  -20.8 °C -12.2 °F /  -24.6 °C 30.75in /  1041.2hPa West 10.4mph /  16.7km/h 10.4mph /  16.7km/h 72% 0.00in /  0mm 0.0 W/m2
01:50 -5.6 °F /  -20.9 °C -12.3 °F /  -24.6 °C 30.75in /  1041.2hPa West 13.8mph /  22.2km/h 13.8mph /  22.2km/h 72% 0.00in /  0mm 0.0 W/m2
01:51 -5.6 °F /  -20.9 °C -12.3 °F /  -24.6 °C 30.75in /  1041.2hPa WNW 11.5mph /  18.5km/h 11.5mph /  18.5km/h 72% 0.00in /  0mm 0.0 W/m2
01:55 -5.6 °F /  -20.9 °C -12.3 °F /  -24.6 °C 30.75in /  1041.2hPa NW 13.8mph /  22.2km/h 13.8mph /  22.2km/h 72% 0.00in /  0mm 0.0 W/m2
02:00 -5.7 °F /  -20.9 °C -12.4 °F /  -24.7 °C 30.75in /  1041.2hPa WNW 10.4mph /  16.7km/h 10.4mph /  16.7km/h 72% 0.00in /  0mm 0.0 W/m2
02:01 -5.7 °F /  -20.9 °C -12.4 °F /  -24.7 °C 30.75in /  1041.2hPa WNW 12.7mph /  20.4km/h 12.7mph /  20.4km/h 72% 0.00in /  0mm 0.0 W/m2
02:02 -5.6 °F /  -20.9 °C -12.3 °F /  -24.6 °C 30.75in /  1041.2hPa West 11.5mph /  18.5km/h 11.5mph /  18.5km/h 72% 0.00in /  0mm 0.0 W/m2
02:12 -5.8 °F /  -21 °C -12.5 °F /  -24.7 °C 30.75in /  1041.2hPa WNW 11.5mph /  18.5km/h 11.5mph /  18.5km/h 72% 0.00in /  0mm 0.0 W/m2
02:14 -5.8 °F /  -21 °C -12.5 °F /  -24.7 °C 30.75in /  1041.2hPa WNW 11.5mph /  18.5km/h 11.5mph /  18.5km/h 72% 0.00in /  0mm 0.0 W/m2
02:19 -5.9 °F /  -21.1 °C -12.6 °F /  -24.8 °C 30.75in /  1041.2hPa WNW 11.5mph /  18.5km/h 11.5mph /  18.5km/h 72% 0.00in /  0mm 0.0 W/m2
02:24 -5.9 °F /  -21.1 °C -12.9 °F /  -24.9 °C 30.75in /  1041.2hPa WNW 11.5mph /  18.5km/h 11.5mph /  18.5km/h 71% 0.00in /  0mm 0.0 W/m2
02:26 -6.0 °F /  -21.1 °C -13.0 °F /  -25 °C 30.75in /  1041.2hPa West 10.4mph /  16.7km/h 10.4mph /  16.7km/h 71% 0.00in /  0mm 0.0 W/m2
02:31 -6.1 °F /  -21.2 °C -13.1 °F /  -25.1 °C 30.75in /  1041.2hPa West 11.5mph /  18.5km/h 11.5mph /  18.5km/h 71% 0.00in /  0mm 0.0 W/m2
02:32 -6.2 °F /  -21.2 °C -13.2 °F /  -25.1 °C 30.75in /  1041.2hPa WNW 11.5mph /  18.5km/h 11.5mph /  18.5km/h 71% 0.00in /  0mm 0.0 W/m2
02:37 -6.3 °F /  -21.3 °C -13.0 °F /  -25 °C 30.75in /  1041.2hPa WSW 11.5mph /  18.5km/h 11.5mph /  18.5km/h 72% 0.00in /  0mm 0.0 W/m2
02:40 -6.3 °F /  -21.3 °C -13.0 °F /  -25 °C 30.75in /  1041.2hPa WNW 8.1mph /  13km/h 8.1mph /  13km/h 72% 0.00in /  0mm 0.0 W/m2
02:42 -6.4 °F /  -21.3 °C -13.1 °F /  -25.1 °C 30.75in /  1041.2hPa WNW 11.5mph /  18.5km/h 11.5mph /  18.5km/h 72% 0.00in /  0mm 0.0 W/m2
02:45 -6.5 °F /  -21.4 °C -13.2 °F /  -25.1 °C 30.75in /  1041.2hPa NW 9.2mph /  14.8km/h 9.2mph /  14.8km/h 72% 0.00in /  0mm 0.0 W/m2
02:48 -6.6 °F /  -21.4 °C -13.3 °F /  -25.2 °C 30.75in /  1041.2hPa West 11.5mph /  18.5km/h 11.5mph /  18.5km/h 72% 0.00in /  0mm 0.0 W/m2
02:50 -6.6 °F /  -21.4 °C -13.3 °F /  -25.2 °C 30.75in /  1041.2hPa WNW 14.0mph /  22.5km/h 14.0mph /  22.5km/h 72% 0.00in /  0mm 0.0 W/m2
02:54 -6.7 °F /  -21.5 °C -13.1 °F /  -25.1 °C 30.75in /  1041.2hPa WNW 13.0mph /  20.9km/h 13.0mph /  20.9km/h 73% 0.00in /  0mm 0.0 W/m2
02:55 -6.7 °F /  -21.5 °C -13.1 °F /  -25.1 °C 30.75in /  1041.2hPa WNW 13.0mph /  20.9km/h 13.0mph /  20.9km/h 73% 0.00in /  0mm 0.0 W/m2
03:00 -6.9 °F /  -21.6 °C -13.3 °F /  -25.2 °C 30.75in /  1041.2hPa West 12.7mph /  20.4km/h 12.7mph /  20.4km/h 73% 0.00in /  0mm 0.0 W/m2
03:02 -7.0 °F /  -21.7 °C -13.4 °F /  -25.2 °C 30.75in /  1041.2hPa WNW 11.5mph /  18.5km/h 11.5mph /  18.5km/h 73% 0.00in /  0mm 0.0 W/m2
03:03 -7.0 °F /  -21.7 °C -13.4 °F /  -25.2 °C 30.75in /  1041.2hPa West 11.5mph /  18.5km/h 11.5mph /  18.5km/h 73% 0.00in /  0mm 0.0 W/m2
03:08 -7.2 °F /  -21.8 °C -13.6 °F /  -25.3 °C 30.75in /  1041.2hPa West 11.5mph /  18.5km/h 11.5mph /  18.5km/h 73% 0.00in /  0mm 0.0 W/m2
03:11 -7.3 °F /  -21.8 °C -13.7 °F /  -25.4 °C 30.75in /  1041.2hPa WNW 11.5mph /  18.5km/h 11.5mph /  18.5km/h 73% 0.00in /  0mm 0.0 W/m2
03:14 -7.4 °F /  -21.9 °C -13.8 °F /  -25.4 °C 30.75in /  1041.2hPa West 11.5mph /  18.5km/h 11.5mph /  18.5km/h 73% 0.00in /  0mm 0.0 W/m2
03:16 -7.5 °F /  -21.9 °C -13.9 °F /  -25.5 °C 30.75in /  1041.2hPa WNW 13.8mph /  22.2km/h 13.8mph /  22.2km/h 73% 0.00in /  0mm 0.0 W/m2
03:21 -7.5 °F /  -21.9 °C -13.6 °F /  -25.3 °C 30.75in /  1041.2hPa WNW 11.5mph /  18.5km/h 11.5mph /  18.5km/h 74% 0.00in /  0mm 0.0 W/m2
03:22 -7.5 °F /  -21.9 °C -13.6 °F /  -25.3 °C 30.75in /  1041.2hPa West 11.5mph /  18.5km/h 11.5mph /  18.5km/h 74% 0.00in /  0mm 0.0 W/m2
03:27 -7.7 °F /  -22.1 °C -14.1 °F /  -25.6 °C 30.75in /  1041.2hPa WNW 5.0mph /  8km/h 5.0mph /  8km/h 73% 0.00in /  0mm 0.0 W/m2
03:30 -7.8 °F /  -22.1 °C -14.2 °F /  -25.7 °C 30.75in /  1041.2hPa WNW 8.1mph /  13km/h 8.1mph /  13km/h 73% 0.00in /  0mm 0.0 W/m2
03:32 -7.9 °F /  -22.2 °C -14.0 °F /  -25.6 °C 30.75in /  1041.2hPa WNW 9.2mph /  14.8km/h 9.2mph /  14.8km/h 74% 0.00in /  0mm 0.0 W/m2
03:37 -7.9 °F /  -22.2 °C -14.3 °F /  -25.7 °C 30.75in /  1041.2hPa WNW 11.5mph /  18.5km/h 11.5mph /  18.5km/h 73% 0.00in /  0mm 0.0 W/m2
03:40 -7.9 °F /  -22.2 °C -14.3 °F /  -25.7 °C 30.75in /  1041.2hPa WNW 11.5mph /  18.5km/h 11.5mph /  18.5km/h 73% 0.00in /  0mm 0.0 W/m2
03:42 -7.8 °F /  -22.1 °C -14.2 °F /  -25.7 °C 30.75in /  1041.2hPa WNW 11.5mph /  18.5km/h 11.5mph /  18.5km/h 73% 0.00in /  0mm 0.0 W/m2
03:45 -7.7 °F /  -22.1 °C -13.8 °F /  -25.4 °C 30.75in /  1041.2hPa West 12.7mph /  20.4km/h 12.7mph /  20.4km/h 74% 0.00in /  0mm 0.0 W/m2
03:50 -7.7 °F /  -22.1 °C -13.8 °F /  -25.4 °C 30.75in /  1041.2hPa WNW 10.4mph /  16.7km/h 10.4mph /  16.7km/h 74% 0.00in /  0mm 0.0 W/m2
03:51 -7.8 °F /  -22.1 °C -13.9 °F /  -25.5 °C 30.75in /  1041.2hPa West 8.0mph /  12.9km/h 8.0mph /  12.9km/h 74% 0.00in /  0mm 0.0 W/m2
03:56 -7.9 °F /  -22.2 °C -14.0 °F /  -25.6 °C 30.75in /  1041.2hPa NW 9.2mph /  14.8km/h 9.2mph /  14.8km/h 74% 0.00in /  0mm 0.0 W/m2
03:57 -7.9 °F /  -22.2 °C -14.0 °F /  -25.6 °C 30.75in /  1041.2hPa WNW 10.0mph /  16.1km/h 10.0mph /  16.1km/h 74% 0.00in /  0mm 0.0 W/m2
04:02 -7.9 °F /  -22.2 °C -14.0 °F /  -25.6 °C 30.75in /  1041.2hPa WNW 10.4mph /  16.7km/h 10.4mph /  16.7km/h 74% 0.00in /  0mm 0.0 W/m2
04:03 -7.9 °F /  -22.2 °C -14.0 °F /  -25.6 °C 30.75in /  1041.2hPa NW 12.0mph /  19.3km/h 12.0mph /  19.3km/h 74% 0.00in /  0mm 0.0 W/m2
04:05 -8.0 °F /  -22.2 °C -14.1 °F /  -25.6 °C 30.75in /  1041.2hPa WNW 9.2mph /  14.8km/h 9.2mph /  14.8km/h 74% 0.00in /  0mm 0.0 W/m2
04:09 -8.0 °F /  -22.2 °C -14.1 °F /  -25.6 °C 30.75in /  1041.2hPa WNW 10.4mph /  16.7km/h 10.4mph /  16.7km/h 74% 0.00in /  0mm 0.0 W/m2
04:11 -8.0 °F /  -22.2 °C -14.1 °F /  -25.6 °C 30.75in /  1041.2hPa NW 11.5mph /  18.5km/h 11.5mph /  18.5km/h 74% 0.00in /  0mm 0.0 W/m2
04:16 -8.2 °F /  -22.3 °C -14.0 °F /  -25.6 °C 30.75in /  1041.2hPa WNW 13.8mph /  22.2km/h 13.8mph /  22.2km/h 75% 0.00in /  0mm 0.0 W/m2
04:17 -8.2 °F /  -22.3 °C -14.0 °F /  -25.6 °C 30.76in /  1041.5hPa WNW 10.4mph /  16.7km/h 10.4mph /  16.7km/h 75% 0.00in /  0mm 0.0 W/m2
04:21 -8.2 °F /  -22.3 °C -14.0 °F /  -25.6 °C 30.76in /  1041.5hPa West 8.1mph /  13km/h 8.1mph /  13km/h 75% 0.00in /  0mm 0.0 W/m2
04:26 -8.3 °F /  -22.4 °C -14.1 °F /  -25.6 °C 30.76in /  1041.5hPa WNW 10.4mph /  16.7km/h 10.4mph /  16.7km/h 75% 0.00in /  0mm 0.0 W/m2
04:28 -8.4 °F /  -22.4 °C -14.2 °F /  -25.7 °C 30.76in /  1041.5hPa WNW 10.4mph /  16.7km/h 10.4mph /  16.7km/h 75% 0.00in /  0mm 0.0 W/m2
04:29 -8.4 °F /  -22.4 °C -14.2 °F /  -25.7 °C 30.76in /  1041.5hPa WNW 10.4mph /  16.7km/h 10.4mph /  16.7km/h 75% 0.00in /  0mm 0.0 W/m2
04:34 -8.5 °F /  -22.5 °C -14.3 °F /  -25.7 °C 30.76in /  1041.5hPa WNW 10.4mph /  16.7km/h 10.4mph /  16.7km/h 75% 0.00in /  0mm 0.0 W/m2
04:37 -8.5 °F /  -22.5 °C -14.3 °F /  -25.7 °C 30.76in /  1041.5hPa NW 11.5mph /  18.5km/h 11.5mph /  18.5km/h 75% 0.00in /  0mm 0.0 W/m2
04:38 -8.5 °F /  -22.5 °C -14.3 °F /  -25.7 °C 30.76in /  1041.5hPa WNW 8.1mph /  13km/h 8.1mph /  13km/h 75% 0.00in /  0mm 0.0 W/m2
04:43 -8.6 °F /  -22.6 °C -14.4 °F /  -25.8 °C 30.76in /  1041.5hPa WNW 7.0mph /  11.3km/h 7.0mph /  11.3km/h 75% 0.00in /  0mm 0.0 W/m2
04:44 -8.6 °F /  -22.6 °C -14.4 °F /  -25.8 °C 30.76in /  1041.5hPa WNW 11.5mph /  18.5km/h 11.5mph /  18.5km/h 75% 0.00in /  0mm 0.0 W/m2
04:49 -8.7 °F /  -22.6 °C -14.5 °F /  -25.8 °C 30.76in /  1041.5hPa WNW 6.9mph /  11.1km/h 6.9mph /  11.1km/h 75% 0.00in /  0mm 0.0 W/m2
04:54 -8.8 °F /  -22.7 °C -14.6 °F /  -25.9 °C 30.76in /  1041.5hPa WNW 9.2mph /  14.8km/h 9.2mph /  14.8km/h 75% 0.00in /  0mm 0.0 W/m2
04:59 -9.0 °F /  -22.8 °C -14.8 °F /  -26 °C 30.76in /  1041.5hPa WNW 10.4mph /  16.7km/h 10.4mph /  16.7km/h 75% 0.00in /  0mm 0.0 W/m2
05:00 -8.9 °F /  -22.7 °C -14.7 °F /  -25.9 °C 30.76in /  1041.5hPa WNW 10.4mph /  16.7km/h 10.4mph /  16.7km/h 75% 0.00in /  0mm 0.0 W/m2
05:05 -9.0 °F /  -22.8 °C -14.5 °F /  -25.8 °C 30.76in /  1041.5hPa WNW 12.7mph /  20.4km/h 12.7mph /  20.4km/h 76% 0.00in /  0mm 0.0 W/m2
05:07 -9.0 °F /  -22.8 °C -14.5 °F /  -25.8 °C 30.76in /  1041.5hPa NW 11.5mph /  18.5km/h 11.5mph /  18.5km/h 76% 0.00in /  0mm 0.0 W/m2
05:12 -9.1 °F /  -22.8 °C -14.6 °F /  -25.9 °C 30.76in /  1041.5hPa WNW 9.2mph /  14.8km/h 9.2mph /  14.8km/h 76% 0.00in /  0mm 0.0 W/m2
05:14 -9.2 °F /  -22.9 °C -14.7 °F /  -25.9 °C 30.76in /  1041.5hPa NW 11.5mph /  18.5km/h 11.5mph /  18.5km/h 76% 0.00in /  0mm 0.0 W/m2
05:15 -9.2 °F /  -22.9 °C -14.7 °F /  -25.9 °C 30.76in /  1041.5hPa NW 9.2mph /  14.8km/h 9.2mph /  14.8km/h 76% 0.00in /  0mm 0.0 W/m2
05:19 -9.3 °F /  -22.9 °C -14.8 °F /  -26 °C 30.76in /  1041.5hPa WNW 9.2mph /  14.8km/h 9.2mph /  14.8km/h 76% 0.00in /  0mm 0.0 W/m2
05:21 -9.3 °F /  -22.9 °C -14.8 °F /  -26 °C 30.76in /  1041.5hPa WNW 6.9mph /  11.1km/h 6.9mph /  11.1km/h 76% 0.00in /  0mm 0.0 W/m2
05:25 -9.3 °F /  -22.9 °C -14.8 °F /  -26 °C 30.77in /  1041.9hPa WNW 10.4mph /  16.7km/h 10.4mph /  16.7km/h 76% 0.00in /  0mm 0.0 W/m2
05:30 -9.4 °F /  -23 °C -14.9 °F /  -26.1 °C 30.77in /  1041.9hPa WNW 8.1mph /  13km/h 8.1mph /  13km/h 76% 0.00in /  0mm 0.0 W/m2
05:31 -9.3 °F /  -22.9 °C -14.8 °F /  -26 °C 30.77in /  1041.9hPa WNW 9.2mph /  14.8km/h 9.2mph /  14.8km/h 76% 0.00in /  0mm 0.0 W/m2
05:36 -9.4 °F /  -23 °C -14.9 °F /  -26.1 °C 30.77in /  1041.9hPa WNW 8.1mph /  13km/h 8.1mph /  13km/h 76% 0.00in /  0mm 0.0 W/m2
05:37 -9.4 °F /  -23 °C -14.9 °F /  -26.1 °C 30.77in /  1041.9hPa WNW 8.1mph /  13km/h 8.1mph /  13km/h 76% 0.00in /  0mm 0.0 W/m2
05:42 -9.4 °F /  -23 °C -14.9 °F /  -26.1 °C 30.77in /  1041.9hPa WNW 10.4mph /  16.7km/h 10.4mph /  16.7km/h 76% 0.00in /  0mm 0.0 W/m2
05:44 -9.4 °F /  -23 °C -14.9 °F /  -26.1 °C 30.77in /  1041.9hPa WNW 10.4mph /  16.7km/h 10.4mph /  16.7km/h 76% 0.00in /  0mm 0.0 W/m2
05:49 -9.4 °F /  -23 °C -14.9 °F /  -26.1 °C 30.77in /  1041.9hPa WNW 8.0mph /  12.9km/h 8.0mph /  12.9km/h 76% 0.00in /  0mm 0.0 W/m2
05:50 -9.4 °F /  -23 °C -14.9 °F /  -26.1 °C 30.77in /  1041.9hPa WNW 8.0mph /  12.9km/h 8.0mph /  12.9km/h 76% 0.00in /  0mm 0.0 W/m2
05:51 -9.5 °F /  -23.1 °C -15.0 °F /  -26.1 °C 30.77in /  1041.9hPa West 8.1mph /  13km/h 8.1mph /  13km/h 76% 0.00in /  0mm 0.0 W/m2
05:55 -9.5 °F /  -23.1 °C -15.0 °F /  -26.1 °C 30.77in /  1041.9hPa WNW 8.1mph /  13km/h 8.1mph /  13km/h 76% 0.00in /  0mm 0.0 W/m2
06:00 -9.5 °F /  -23.1 °C -15.0 °F /  -26.1 °C 30.77in /  1041.9hPa West 10.4mph /  16.7km/h 10.4mph /  16.7km/h 76% 0.00in /  0mm 0.0 W/m2
06:02 -9.5 °F /  -23.1 °C -15.0 °F /  -26.1 °C 30.77in /  1041.9hPa WNW 9.2mph /  14.8km/h 9.2mph /  14.8km/h 76% 0.00in /  0mm 0.0 W/m2
06:07 -9.6 °F /  -23.1 °C -15.1 °F /  -26.2 °C 30.77in /  1041.9hPa WNW 11.5mph /  18.5km/h 11.5mph /  18.5km/h 76% 0.00in /  0mm 0.0 W/m2
06:11 -9.6 °F /  -23.1 °C -15.1 °F /  -26.2 °C 30.77in /  1041.9hPa West 8.1mph /  13km/h 8.1mph /  13km/h 76% 0.00in /  0mm 0.0 W/m2
06:15 -9.7 °F /  -23.2 °C -15.2 °F /  -26.2 °C 30.77in /  1041.9hPa WNW 8.1mph /  13km/h 8.1mph /  13km/h 76% 0.00in /  0mm 0.0 W/m2
06:20 -9.8 °F /  -23.2 °C -15.3 °F /  -26.3 °C 30.77in /  1041.9hPa West 9.2mph /  14.8km/h 9.2mph /  14.8km/h 76% 0.00in /  0mm 0.0 W/m2
06:24 -9.8 °F /  -23.2 °C -15.3 °F /  -26.3 °C 30.77in /  1041.9hPa WNW 9.2mph /  14.8km/h 9.2mph /  14.8km/h 76% 0.00in /  0mm 0.0 W/m2
06:25 -9.8 °F /  -23.2 °C -15.3 °F /  -26.3 °C 30.77in /  1041.9hPa NW 9.2mph /  14.8km/h 9.2mph /  14.8km/h 76% 0.00in /  0mm 0.0 W/m2
06:30 -9.9 °F /  -23.3 °C -15.4 °F /  -26.3 °C 30.78in /  1042.2hPa WNW 6.9mph /  11.1km/h 6.9mph /  11.1km/h 76% 0.00in /  0mm 0.0 W/m2
06:31 -9.9 °F /  -23.3 °C -15.4 °F /  -26.3 °C 30.78in /  1042.2hPa WNW 6.9mph /  11.1km/h 6.9mph /  11.1km/h 76% 0.00in /  0mm 0.0 W/m2
06:36 -10.2 °F /  -23.4 °C -15.7 °F /  -26.5 °C 30.78in /  1042.2hPa West 8.1mph /  13km/h 8.1mph /  13km/h 76% 0.00in /  0mm 0.0 W/m2
06:37 -10.2 °F /  -23.4 °C -15.7 °F /  -26.5 °C 30.78in /  1042.2hPa West 10.4mph /  16.7km/h 10.4mph /  16.7km/h 76% 0.00in /  0mm 0.0 W/m2
06:38 -10.2 °F /  -23.4 °C -15.7 °F /  -26.5 °C 30.78in /  1042.2hPa WNW 10.4mph /  16.7km/h 10.4mph /  16.7km/h 76% 0.00in /  0mm 0.0 W/m2
06:43 -10.5 °F /  -23.6 °C -16.0 °F /  -26.7 °C 30.78in /  1042.2hPa WNW 10.4mph /  16.7km/h 10.4mph /  16.7km/h 76% 0.00in /  0mm 0.0 W/m2
06:44 -10.6 °F /  -23.7 °C -16.1 °F /  -26.7 °C 30.78in /  1042.2hPa WNW 9.2mph /  14.8km/h 9.2mph /  14.8km/h 76% 0.00in /  0mm 0.0 W/m2
06:46 -10.6 °F /  -23.7 °C -16.1 °F /  -26.7 °C 30.78in /  1042.2hPa WNW 5.8mph /  9.3km/h 5.8mph /  9.3km/h 76% 0.00in /  0mm 0.0 W/m2
06:49 -10.7 °F /  -23.7 °C -16.2 °F /  -26.8 °C 30.78in /  1042.2hPa WNW 10.4mph /  16.7km/h 10.4mph /  16.7km/h 76% 0.00in /  0mm 0.0 W/m2
06:54 -10.9 °F /  -23.8 °C -16.4 °F /  -26.9 °C 30.78in /  1042.2hPa WNW 5.0mph /  8km/h 5.0mph /  8km/h 76% 0.00in /  0mm 0.0 W/m2
06:55 -10.9 °F /  -23.8 °C -16.4 °F /  -26.9 °C 30.78in /  1042.2hPa WNW 4.6mph /  7.4km/h 4.8mph /  7.7km/h 76% 0.00in /  0mm 0.0 W/m2
06:59 -11.1 °F /  -23.9 °C -16.6 °F /  -27 °C 30.78in /  1042.2hPa WNW 8.1mph /  13km/h 8.1mph /  13km/h 76% 0.00in /  0mm 0.0 W/m2
07:01 -11.1 °F /  -23.9 °C -16.6 °F /  -27 °C 30.78in /  1042.2hPa WNW 7.0mph /  11.3km/h 7.0mph /  11.3km/h 76% 0.00in /  0mm 0.0 W/m2
07:04 -11.2 °F /  -24 °C -16.7 °F /  -27.1 °C 30.78in /  1042.2hPa WNW 6.9mph /  11.1km/h 6.9mph /  11.1km/h 76% 0.00in /  0mm 0.0 W/m2
07:07 -11.2 °F /  -24 °C -16.7 °F /  -27.1 °C 30.78in /  1042.2hPa WNW 8.1mph /  13km/h 8.1mph /  13km/h 76% 0.00in /  0mm 0.0 W/m2
07:09 -11.2 °F /  -24 °C -16.4 °F /  -26.9 °C 30.78in /  1042.2hPa West 9.2mph /  14.8km/h 9.2mph /  14.8km/h 77% 0.00in /  0mm 0.0 W/m2
07:14 -11.2 °F /  -24 °C -16.4 °F /  -26.9 °C 30.79in /  1042.5hPa West 3.5mph /  5.6km/h 3.5mph /  5.6km/h 77% 0.00in /  0mm 0.0 W/m2
07:19 -11.2 °F /  -24 °C -16.4 °F /  -26.9 °C 30.78in /  1042.2hPa West 8.1mph /  13km/h 8.1mph /  13km/h 77% 0.00in /  0mm 5.0 W/m2
07:20 -11.2 °F /  -24 °C -16.4 °F /  -26.9 °C 30.78in /  1042.2hPa West 8.1mph /  13km/h 8.1mph /  13km/h 77% 0.00in /  0mm 7.0 W/m2
07:22 -9.9 °F /  -23.3 °C -15.1 °F /  -26.2 °C 30.78in /  1042.2hPa WNW 11.5mph /  18.5km/h 11.5mph /  18.5km/h 77% 0.00in /  0mm 7.0 W/m2
07:25 -8.6 °F /  -22.6 °C -14.9 °F /  -26.1 °C 30.79in /  1042.5hPa WSW 6.9mph /  11.1km/h 6.9mph /  11.1km/h 73% 0.00in /  0mm 9.0 W/m2
07:30 -10.5 °F /  -23.6 °C -16.8 °F /  -27.1 °C 30.79in /  1042.5hPa West 6.9mph /  11.1km/h 6.9mph /  11.1km/h 73% 0.00in /  0mm 11.0 W/m2
07:34 -10.9 °F /  -23.8 °C -16.9 °F /  -27.2 °C 30.79in /  1042.5hPa West 10.4mph /  16.7km/h 10.4mph /  16.7km/h 74% 0.00in /  0mm 12.0 W/m2
07:39 -11.2 °F /  -24 °C -16.9 °F /  -27.2 °C 30.79in /  1042.5hPa West 8.1mph /  13km/h 8.1mph /  13km/h 75% 0.00in /  0mm 16.0 W/m2
07:40 -11.2 °F /  -24 °C -16.7 °F /  -27.1 °C 30.79in /  1042.5hPa West 8.1mph /  13km/h 8.1mph /  13km/h 76% 0.00in /  0mm 18.0 W/m2
07:45 -11.3 °F /  -24.1 °C -16.8 °F /  -27.1 °C 30.79in /  1042.5hPa West 8.1mph /  13km/h 8.1mph /  13km/h 76% 0.00in /  0mm 25.0 W/m2
07:50 -11.3 °F /  -24.1 °C -16.8 °F /  -27.1 °C 30.79in /  1042.5hPa WNW 8.1mph /  13km/h 8.1mph /  13km/h 76% 0.00in /  0mm 33.0 W/m2
07:55 -11.2 °F /  -24 °C -16.7 °F /  -27.1 °C 30.79in /  1042.5hPa WNW 8.1mph /  13km/h 8.1mph /  13km/h 76% 0.00in /  0mm 44.0 W/m2
08:00 -11.1 °F /  -23.9 °C -16.6 °F /  -27 °C 30.79in /  1042.5hPa WNW 5.8mph /  9.3km/h 5.8mph /  9.3km/h 76% 0.00in /  0mm 53.0 W/m2
08:03 -11.0 °F /  -23.9 °C -16.5 °F /  -26.9 °C 30.80in /  1042.9hPa NW 8.1mph /  13km/h 8.1mph /  13km/h 76% 0.00in /  0mm 63.0 W/m2
08:08 -11.0 °F /  -23.9 °C -16.5 °F /  -26.9 °C 30.80in /  1042.9hPa WSW 6.9mph /  11.1km/h 6.9mph /  11.1km/h 76% 0.00in /  0mm 72.0 W/m2
08:09 -11.0 °F /  -23.9 °C -16.5 °F /  -26.9 °C 30.80in /  1042.9hPa West 10.4mph /  16.7km/h 10.4mph /  16.7km/h 76% 0.00in /  0mm 77.0 W/m2
08:14 -10.9 °F /  -23.8 °C -16.4 °F /  -26.9 °C 30.80in /  1042.9hPa West 9.2mph /  14.8km/h 9.2mph /  14.8km/h 76% 0.00in /  0mm 91.0 W/m2
08:15 -10.9 °F /  -23.8 °C -16.4 °F /  -26.9 °C 30.80in /  1042.9hPa West 11.5mph /  18.5km/h 11.5mph /  18.5km/h 76% 0.00in /  0mm 93.0 W/m2
08:20 -10.8 °F /  -23.8 °C -16.3 °F /  -26.8 °C 30.80in /  1042.9hPa WSW 10.4mph /  16.7km/h 10.4mph /  16.7km/h 76% 0.00in /  0mm 107.0 W/m2
08:21 -10.8 °F /  -23.8 °C -16.3 °F /  -26.8 °C 30.80in /  1042.9hPa West 11.5mph /  18.5km/h 11.5mph /  18.5km/h 76% 0.00in /  0mm 111.0 W/m2
08:25 -10.7 °F /  -23.7 °C -16.2 °F /  -26.8 °C 30.80in /  1042.9hPa West 8.1mph /  13km/h 8.1mph /  13km/h 76% 0.00in /  0mm 123.0 W/m2
08:30 -10.6 °F /  -23.7 °C -16.1 °F /  -26.7 °C 30.80in /  1042.9hPa West 11.5mph /  18.5km/h 11.5mph /  18.5km/h 76% 0.00in /  0mm 137.0 W/m2
08:31 -10.6 °F /  -23.7 °C -16.1 °F /  -26.7 °C 30.80in /  1042.9hPa West 11.5mph /  18.5km/h 11.5mph /  18.5km/h 76% 0.00in /  0mm 139.0 W/m2
08:36 -10.4 °F /  -23.6 °C -15.9 °F /  -26.6 °C 30.80in /  1042.9hPa West 9.2mph /  14.8km/h 9.2mph /  14.8km/h 76% 0.00in /  0mm 158.0 W/m2
08:38 -10.4 °F /  -23.6 °C -15.9 °F /  -26.6 °C 30.80in /  1042.9hPa West 10.4mph /  16.7km/h 10.4mph /  16.7km/h 76% 0.00in /  0mm 163.0 W/m2
08:41 -10.3 °F /  -23.5 °C -15.8 °F /  -26.6 °C 30.80in /  1042.9hPa West 10.4mph /  16.7km/h 10.4mph /  16.7km/h 76% 0.00in /  0mm 171.0 W/m2
08:46 -10.2 °F /  -23.4 °C -15.7 °F /  -26.5 °C 30.81in /  1043.2hPa West 9.2mph /  14.8km/h 9.2mph /  14.8km/h 76% 0.00in /  0mm 186.0 W/m2
08:51 -9.9 °F /  -23.3 °C -15.7 °F /  -26.5 °C 30.81in /  1043.2hPa WNW 11.5mph /  18.5km/h 11.5mph /  18.5km/h 75% 0.00in /  0mm 206.0 W/m2
08:53 -9.9 °F /  -23.3 °C -15.7 °F /  -26.5 °C 30.81in /  1043.2hPa WNW 10.4mph /  16.7km/h 10.4mph /  16.7km/h 75% 0.00in /  0mm 209.0 W/m2
08:58 -9.8 °F /  -23.2 °C -15.6 °F /  -26.4 °C 30.81in /  1043.2hPa WNW 12.7mph /  20.4km/h 12.7mph /  20.4km/h 75% 0.00in /  0mm 223.0 W/m2
09:00 -9.7 °F /  -23.2 °C -15.5 °F /  -26.4 °C 30.81in /  1043.2hPa West 9.0mph /  14.5km/h 9.0mph /  14.5km/h 75% 0.00in /  0mm 232.0 W/m2
09:03 -9.5 °F /  -23.1 °C -15.3 °F /  -26.3 °C 30.81in /  1043.2hPa WNW 11.5mph /  18.5km/h 11.5mph /  18.5km/h 75% 0.00in /  0mm 239.0 W/m2
09:08 -9.2 °F /  -22.9 °C -15.0 °F /  -26.1 °C 30.81in /  1043.2hPa West 8.1mph /  13km/h 8.1mph /  13km/h 75% 0.00in /  0mm 253.0 W/m2
09:13 -9.0 °F /  -22.8 °C -15.0 °F /  -26.1 °C 30.81in /  1043.2hPa West 10.4mph /  16.7km/h 10.4mph /  16.7km/h 74% 0.00in /  0mm 267.0 W/m2
09:18 -8.9 °F /  -22.7 °C -15.0 °F /  -26.1 °C 30.81in /  1043.2hPa WNW 11.5mph /  18.5km/h 11.5mph /  18.5km/h 74% 0.00in /  0mm 279.0 W/m2
09:19 -8.8 °F /  -22.7 °C -14.9 °F /  -26.1 °C 30.81in /  1043.2hPa WNW 11.5mph /  18.5km/h 11.5mph /  18.5km/h 74% 0.00in /  0mm 279.0 W/m2
09:24 -8.6 °F /  -22.6 °C -14.7 °F /  -25.9 °C 30.81in /  1043.2hPa West 10.4mph /  16.7km/h 10.4mph /  16.7km/h 74% 0.00in /  0mm 292.0 W/m2
09:29 -8.4 °F /  -22.4 °C -14.7 °F /  -25.9 °C 30.82in /  1043.6hPa West 9.2mph /  14.8km/h 9.2mph /  14.8km/h 73% 0.00in /  0mm 302.0 W/m2
09:30 -8.4 °F /  -22.4 °C -14.7 °F /  -25.9 °C 30.81in /  1043.2hPa WNW 10.0mph /  16.1km/h 10.0mph /  16.1km/h 73% 0.00in /  0mm 306.0 W/m2
09:35 -8.1 °F /  -22.3 °C -14.4 °F /  -25.8 °C 30.82in /  1043.6hPa West 5.8mph /  9.3km/h 5.8mph /  9.3km/h 73% 0.00in /  0mm 315.0 W/m2
09:40 -8.0 °F /  -22.2 °C -14.3 °F /  -25.7 °C 30.82in /  1043.6hPa West 10.4mph /  16.7km/h 10.4mph /  16.7km/h 73% 0.00in /  0mm 325.0 W/m2
09:41 -8.0 °F /  -22.2 °C -14.3 °F /  -25.7 °C 30.82in /  1043.6hPa WNW 10.4mph /  16.7km/h 10.4mph /  16.7km/h 73% 0.00in /  0mm 327.0 W/m2
09:46 -7.9 °F /  -22.2 °C -14.3 °F /  -25.7 °C 30.82in /  1043.6hPa WNW 8.1mph /  13km/h 8.1mph /  13km/h 73% 0.00in /  0mm 334.0 W/m2
09:47 -7.8 °F /  -22.1 °C -14.2 °F /  -25.7 °C 30.82in /  1043.6hPa WNW 11.5mph /  18.5km/h 11.5mph /  18.5km/h 73% 0.00in /  0mm 338.0 W/m2
09:52 -7.7 °F /  -22.1 °C -14.3 °F /  -25.7 °C 30.82in /  1043.6hPa WNW 10.4mph /  16.7km/h 10.4mph /  16.7km/h 72% 0.00in /  0mm 346.0 W/m2
09:53 -7.7 °F /  -22.1 °C -14.3 °F /  -25.7 °C 30.82in /  1043.6hPa WNW 10.4mph /  16.7km/h 10.4mph /  16.7km/h 72% 0.00in /  0mm 346.0 W/m2
09:54 -7.6 °F /  -22 °C -14.0 °F /  -25.6 °C 30.82in /  1043.6hPa NW 11.5mph /  18.5km/h 11.5mph /  18.5km/h 73% 0.00in /  0mm 352.0 W/m2
09:59 -7.4 °F /  -21.9 °C -13.8 °F /  -25.4 °C 30.82in /  1043.6hPa NW 8.1mph /  13km/h 8.1mph /  13km/h 73% 0.00in /  0mm 360.0 W/m2
10:04 -7.0 °F /  -21.7 °C -13.4 °F /  -25.2 °C 30.82in /  1043.6hPa West 9.2mph /  14.8km/h 9.2mph /  14.8km/h 73% 0.00in /  0mm 367.0 W/m2
10:05 -6.9 °F /  -21.6 °C -13.3 °F /  -25.2 °C 30.82in /  1043.6hPa WNW 9.2mph /  14.8km/h 9.2mph /  14.8km/h 73% 0.00in /  0mm 369.0 W/m2
10:10 -6.8 °F /  -21.6 °C -13.5 °F /  -25.3 °C 30.82in /  1043.6hPa WNW 11.5mph /  18.5km/h 11.5mph /  18.5km/h 72% 0.00in /  0mm 378.0 W/m2
10:12 -6.7 °F /  -21.5 °C -13.4 °F /  -25.2 °C 30.82in /  1043.6hPa West 6.9mph /  11.1km/h 6.9mph /  11.1km/h 72% 0.00in /  0mm 381.0 W/m2
10:17 -6.5 °F /  -21.4 °C -13.2 °F /  -25.1 °C 30.82in /  1043.6hPa WNW 4.6mph /  7.4km/h 4.6mph /  7.4km/h 72% 0.00in /  0mm 388.0 W/m2
10:18 -6.4 °F /  -21.3 °C -13.1 °F /  -25.1 °C 30.82in /  1043.6hPa WNW 8.0mph /  12.9km/h 8.0mph /  12.9km/h 72% 0.00in /  0mm 390.0 W/m2
10:21 -6.4 °F /  -21.3 °C -13.4 °F /  -25.2 °C 30.82in /  1043.6hPa WNW 10.4mph /  16.7km/h 10.4mph /  16.7km/h 71% 0.00in /  0mm 396.0 W/m2
10:25 -6.2 °F /  -21.2 °C -13.2 °F /  -25.1 °C 30.82in /  1043.6hPa WNW 9.2mph /  14.8km/h 9.2mph /  14.8km/h 71% 0.00in /  0mm 401.0 W/m2
10:28 -6.1 °F /  -21.2 °C -13.1 °F /  -25.1 °C 30.82in /  1043.6hPa WNW 5.8mph /  9.3km/h 5.8mph /  9.3km/h 71% 0.00in /  0mm 406.0 W/m2
10:33 -5.8 °F /  -21 °C -12.8 °F /  -24.9 °C 30.82in /  1043.6hPa NW 8.1mph /  13km/h 8.1mph /  13km/h 71% 0.00in /  0mm 413.0 W/m2
10:34 -5.8 °F /  -21 °C -12.8 °F /  -24.9 °C 30.82in /  1043.6hPa WNW 10.4mph /  16.7km/h 10.4mph /  16.7km/h 71% 0.00in /  0mm 411.0 W/m2
10:35 -5.8 °F /  -21 °C -12.8 °F /  -24.9 °C 30.82in /  1043.6hPa WNW 10.4mph /  16.7km/h 10.4mph /  16.7km/h 71% 0.00in /  0mm 417.0 W/m2
10:39 -5.6 °F /  -20.9 °C -12.9 °F /  -24.9 °C 30.82in /  1043.6hPa WNW 11.5mph /  18.5km/h 11.5mph /  18.5km/h 70% 0.00in /  0mm 420.0 W/m2
10:40 -5.7 °F /  -20.9 °C -13.0 °F /  -25 °C 30.82in /  1043.6hPa WNW 11.5mph /  18.5km/h 11.5mph /  18.5km/h 70% 0.00in /  0mm 420.0 W/m2
10:42 -5.6 °F /  -20.9 °C -12.9 °F /  -24.9 °C 30.82in /  1043.6hPa SW 11.5mph /  18.5km/h 11.5mph /  18.5km/h 70% 0.00in /  0mm 424.0 W/m2
10:46 -5.6 °F /  -20.9 °C -12.9 °F /  -24.9 °C 30.82in /  1043.6hPa WNW 10.4mph /  16.7km/h 10.4mph /  16.7km/h 70% 0.00in /  0mm 429.0 W/m2
10:51 -5.6 °F /  -20.9 °C -13.2 °F /  -25.1 °C 30.82in /  1043.6hPa WSW 9.2mph /  14.8km/h 9.2mph /  14.8km/h 69% 0.00in /  0mm 434.0 W/m2
10:52 -5.6 °F /  -20.9 °C -13.2 °F /  -25.1 °C 30.82in /  1043.6hPa West 9.2mph /  14.8km/h 9.2mph /  14.8km/h 69% 0.00in /  0mm 436.0 W/m2
10:53 -5.6 °F /  -20.9 °C -13.2 °F /  -25.1 °C 30.82in /  1043.6hPa WNW 10.4mph /  16.7km/h 10.4mph /  16.7km/h 69% 0.00in /  0mm 438.0 W/m2
10:58 -5.3 °F /  -20.7 °C -12.6 °F /  -24.8 °C 30.81in /  1043.2hPa WNW 10.4mph /  16.7km/h 10.4mph /  16.7km/h 70% 0.00in /  0mm 443.0 W/m2
10:59 -5.3 °F /  -20.7 °C -12.6 °F /  -24.8 °C 30.82in /  1043.6hPa WNW 10.4mph /  16.7km/h 10.4mph /  16.7km/h 70% 0.00in /  0mm 441.0 W/m2
11:04 -5.3 °F /  -20.7 °C -12.6 °F /  -24.8 °C 30.82in /  1043.6hPa WNW 5.8mph /  9.3km/h 5.8mph /  9.3km/h 70% 0.00in /  0mm 445.0 W/m2
11:05 -5.3 °F /  -20.7 °C -12.6 °F /  -24.8 °C 30.82in /  1043.6hPa WNW 5.8mph /  9.3km/h 5.8mph /  9.3km/h 70% 0.00in /  0mm 446.0 W/m2
11:10 -5.1 °F /  -20.6 °C -12.7 °F /  -24.8 °C 30.82in /  1043.6hPa West 9.2mph /  14.8km/h 9.2mph /  14.8km/h 69% 0.00in /  0mm 450.0 W/m2
11:15 -4.9 °F /  -20.5 °C -12.5 °F /  -24.7 °C 30.81in /  1043.2hPa WNW 3.5mph /  5.6km/h 3.5mph /  5.6km/h 69% 0.00in /  0mm 450.0 W/m2
11:17 -4.8 °F /  -20.4 °C -12.4 °F /  -24.7 °C 30.81in /  1043.2hPa WNW 5.0mph /  8km/h 5.0mph /  8km/h 69% 0.00in /  0mm 454.0 W/m2
11:22 -4.6 °F /  -20.3 °C -12.2 °F /  -24.6 °C 30.81in /  1043.2hPa WSW 7.0mph /  11.3km/h 7.0mph /  11.3km/h 69% 0.00in /  0mm 457.0 W/m2
11:24 -4.5 °F /  -20.3 °C -12.1 °F /  -24.5 °C 30.81in /  1043.2hPa West 6.9mph /  11.1km/h 6.9mph /  11.1km/h 69% 0.00in /  0mm 459.0 W/m2
11:29 -4.1 °F /  -20.1 °C -11.7 °F /  -24.3 °C 30.81in /  1043.2hPa WSW 4.6mph /  7.4km/h 4.6mph /  7.4km/h 69% 0.00in /  0mm 461.0 W/m2
11:34 -4.0 °F /  -20 °C -11.9 °F /  -24.4 °C 30.81in /  1043.2hPa WSW 11.5mph /  18.5km/h 11.5mph /  18.5km/h 68% 0.00in /  0mm 462.0 W/m2
11:37 -3.9 °F /  -19.9 °C -11.8 °F /  -24.3 °C 30.81in /  1043.2hPa West 3.5mph /  5.6km/h 3.5mph /  5.6km/h 68% 0.00in /  0mm 464.0 W/m2
11:42 -3.7 °F /  -19.8 °C -11.6 °F /  -24.2 °C 30.80in /  1042.9hPa WSW 9.2mph /  14.8km/h 9.2mph /  14.8km/h 68% 0.00in /  0mm 466.0 W/m2
11:47 -3.6 °F /  -19.8 °C -11.5 °F /  -24.2 °C 30.80in /  1042.9hPa WSW 9.2mph /  14.8km/h 9.2mph /  14.8km/h 68% 0.00in /  0mm 466.0 W/m2
11:52 -3.4 °F /  -19.7 °C -11.0 °F /  -23.9 °C 30.80in /  1042.9hPa WNW 11.0mph /  17.7km/h 11.0mph /  17.7km/h 69% 0.00in /  0mm 466.0 W/m2
11:53 -3.3 °F /  -19.6 °C -10.9 °F /  -23.8 °C 30.80in /  1042.9hPa WNW 11.5mph /  18.5km/h 11.5mph /  18.5km/h 69% 0.00in /  0mm 466.0 W/m2
11:54 -3.3 °F /  -19.6 °C -10.9 °F /  -23.8 °C 30.80in /  1042.9hPa WNW 11.5mph /  18.5km/h 11.5mph /  18.5km/h 69% 0.00in /  0mm 468.0 W/m2
11:58 -3.3 °F /  -19.6 °C -11.2 °F /  -24 °C 30.80in /  1042.9hPa West 11.5mph /  18.5km/h 11.5mph /  18.5km/h 68% 0.00in /  0mm 468.0 W/m2
12:03 -3.4 °F /  -19.7 °C -11.3 °F /  -24.1 °C 30.80in /  1042.9hPa WNW 10.4mph /  16.7km/h 10.4mph /  16.7km/h 68% 0.00in /  0mm 466.0 W/m2
12:04 -3.4 °F /  -19.7 °C -11.3 °F /  -24.1 °C 30.80in /  1042.9hPa WNW 10.4mph /  16.7km/h 10.4mph /  16.7km/h 68% 0.00in /  0mm 466.0 W/m2
12:09 -3.0 °F /  -19.4 °C -10.4 °F /  -23.6 °C 30.80in /  1042.9hPa West 3.5mph /  5.6km/h 3.5mph /  5.6km/h 70% 0.00in /  0mm 466.0 W/m2
12:10 -3.0 °F /  -19.4 °C -10.4 °F /  -23.6 °C 30.80in /  1042.9hPa West 5.8mph /  9.3km/h 5.8mph /  9.3km/h 70% 0.00in /  0mm 466.0 W/m2
12:14 -3.1 °F /  -19.5 °C -10.5 °F /  -23.6 °C 30.80in /  1042.9hPa West 10.0mph /  16.1km/h 10.0mph /  16.1km/h 70% 0.00in /  0mm 466.0 W/m2
12:18 -3.4 °F /  -19.7 °C -10.7 °F /  -23.7 °C 30.80in /  1042.9hPa WSW 9.2mph /  14.8km/h 9.2mph /  14.8km/h 70% 0.00in /  0mm 464.0 W/m2
12:23 -3.6 °F /  -19.8 °C -10.9 °F /  -23.8 °C 30.80in /  1042.9hPa West 10.4mph /  16.7km/h 10.4mph /  16.7km/h 70% 0.00in /  0mm 461.0 W/m2
12:26 -3.6 °F /  -19.8 °C -10.9 °F /  -23.8 °C 30.80in /  1042.9hPa WSW 10.4mph /  16.7km/h 10.4mph /  16.7km/h 70% 0.00in /  0mm 459.0 W/m2
12:31 -3.5 °F /  -19.7 °C -10.6 °F /  -23.7 °C 30.80in /  1042.9hPa WSW 8.1mph /  13km/h 8.1mph /  13km/h 71% 0.00in /  0mm 457.0 W/m2
12:34 -3.4 °F /  -19.7 °C -10.5 °F /  -23.6 °C 30.80in /  1042.9hPa West 7.0mph /  11.3km/h 7.0mph /  11.3km/h 71% 0.00in /  0mm 455.0 W/m2
12:39 -3.2 °F /  -19.6 °C -10.3 °F /  -23.5 °C 30.80in /  1042.9hPa SSW 11.5mph /  18.5km/h 11.5mph /  18.5km/h 71% 0.00in /  0mm 452.0 W/m2
12:41 -3.5 °F /  -19.7 °C -10.8 °F /  -23.8 °C 30.79in /  1042.5hPa WSW 10.4mph /  16.7km/h 10.4mph /  16.7km/h 70% 0.00in /  0mm 452.0 W/m2
12:44 -3.6 °F /  -19.8 °C -10.9 °F /  -23.8 °C 30.79in /  1042.5hPa WSW 10.4mph /  16.7km/h 10.4mph /  16.7km/h 70% 0.00in /  0mm 446.0 W/m2
12:47 -3.5 °F /  -19.7 °C -10.6 °F /  -23.7 °C 30.79in /  1042.5hPa WSW 6.9mph /  11.1km/h 6.9mph /  11.1km/h 71% 0.00in /  0mm 446.0 W/m2
12:50 -3.5 °F /  -19.7 °C -10.6 °F /  -23.7 °C 30.79in /  1042.5hPa West 11.0mph /  17.7km/h 11.0mph /  17.7km/h 71% 0.00in /  0mm 445.0 W/m2
12:54 -3.6 °F /  -19.8 °C -10.7 °F /  -23.7 °C 30.79in /  1042.5hPa West 9.2mph /  14.8km/h 9.2mph /  14.8km/h 71% 0.00in /  0mm 441.0 W/m2
12:57 -3.5 °F /  -19.7 °C -10.6 °F /  -23.7 °C 30.79in /  1042.5hPa West 8.0mph /  12.9km/h 8.0mph /  12.9km/h 71% 0.00in /  0mm 439.0 W/m2
13:02 -3.7 °F /  -19.8 °C -11.0 °F /  -23.9 °C 30.79in /  1042.5hPa WSW 9.2mph /  14.8km/h 9.2mph /  14.8km/h 70% 0.00in /  0mm 434.0 W/m2
13:05 -3.7 °F /  -19.8 °C -11.0 °F /  -23.9 °C 30.79in /  1042.5hPa West 9.2mph /  14.8km/h 9.2mph /  14.8km/h 70% 0.00in /  0mm 429.0 W/m2
13:07 -3.7 °F /  -19.8 °C -11.0 °F /  -23.9 °C 30.79in /  1042.5hPa WSW 5.0mph /  8km/h 6.0mph /  9.7km/h 70% 0.00in /  0mm 427.0 W/m2
13:12 -3.8 °F /  -19.9 °C -11.1 °F /  -23.9 °C 30.79in /  1042.5hPa West 10.4mph /  16.7km/h 10.4mph /  16.7km/h 70% 0.00in /  0mm 420.0 W/m2
13:15 -3.7 °F /  -19.8 °C -11.0 °F /  -23.9 °C 30.79in /  1042.5hPa WNW 8.1mph /  13km/h 8.1mph /  13km/h 70% 0.00in /  0mm 418.0 W/m2
13:18 -3.6 °F /  -19.8 °C -10.7 °F /  -23.7 °C 30.79in /  1042.5hPa WSW 12.7mph /  20.4km/h 12.7mph /  20.4km/h 71% 0.00in /  0mm 415.0 W/m2
13:23 -3.6 °F /  -19.8 °C -10.7 °F /  -23.7 °C 30.79in /  1042.5hPa WSW 10.4mph /  16.7km/h 10.4mph /  16.7km/h 71% 0.00in /  0mm 410.0 W/m2
13:26 -3.6 °F /  -19.8 °C -10.7 °F /  -23.7 °C 30.79in /  1042.5hPa SW 10.4mph /  16.7km/h 10.4mph /  16.7km/h 71% 0.00in /  0mm 404.0 W/m2
13:31 -3.4 °F /  -19.7 °C -10.5 °F /  -23.6 °C 30.79in /  1042.5hPa WSW 11.0mph /  17.7km/h 11.0mph /  17.7km/h 71% 0.00in /  0mm 397.0 W/m2
13:32 -3.4 °F /  -19.7 °C -10.5 °F /  -23.6 °C 30.79in /  1042.5hPa West 11.5mph /  18.5km/h 11.5mph /  18.5km/h 71% 0.00in /  0mm 396.0 W/m2
13:34 -3.4 °F /  -19.7 °C -10.5 °F /  -23.6 °C 30.79in /  1042.5hPa WSW 12.0mph /  19.3km/h 12.0mph /  19.3km/h 71% 0.00in /  0mm 392.0 W/m2
13:37 -3.3 °F /  -19.6 °C -10.4 °F /  -23.6 °C 30.79in /  1042.5hPa WSW 10.4mph /  16.7km/h 10.4mph /  16.7km/h 71% 0.00in /  0mm 388.0 W/m2
13:42 -3.1 °F /  -19.5 °C -10.2 °F /  -23.4 °C 30.78in /  1042.2hPa WNW 10.4mph /  16.7km/h 10.4mph /  16.7km/h 71% 0.00in /  0mm 381.0 W/m2
13:43 -3.0 °F /  -19.4 °C -10.1 °F /  -23.4 °C 30.78in /  1042.2hPa West 10.4mph /  16.7km/h 10.4mph /  16.7km/h 71% 0.00in /  0mm 380.0 W/m2
13:45 -3.0 °F /  -19.4 °C -9.8 °F /  -23.2 °C 30.79in /  1042.5hPa West 12.7mph /  20.4km/h 12.7mph /  20.4km/h 72% 0.00in /  0mm 376.0 W/m2
13:48 -2.8 °F /  -19.3 °C -9.6 °F /  -23.1 °C 30.79in /  1042.5hPa West 11.5mph /  18.5km/h 11.5mph /  18.5km/h 72% 0.00in /  0mm 373.0 W/m2
13:51 -3.0 °F /  -19.4 °C -10.1 °F /  -23.4 °C 30.78in /  1042.2hPa West 11.5mph /  18.5km/h 11.5mph /  18.5km/h 71% 0.00in /  0mm 366.0 W/m2
13:53 -2.9 °F /  -19.4 °C -10.0 °F /  -23.3 °C 30.78in /  1042.2hPa West 10.4mph /  16.7km/h 10.4mph /  16.7km/h 71% 0.00in /  0mm 362.0 W/m2
13:57 -2.8 °F /  -19.3 °C -9.9 °F /  -23.3 °C 30.78in /  1042.2hPa WSW 10.0mph /  16.1km/h 10.0mph /  16.1km/h 71% 0.00in /  0mm 355.0 W/m2
14:02 -2.8 °F /  -19.3 °C -9.9 °F /  -23.3 °C 30.78in /  1042.2hPa West 11.5mph /  18.5km/h 11.5mph /  18.5km/h 71% 0.00in /  0mm 348.0 W/m2
14:06 -2.8 °F /  -19.3 °C -9.9 °F /  -23.3 °C 30.78in /  1042.2hPa WSW 8.0mph /  12.9km/h 8.0mph /  12.9km/h 71% 0.00in /  0mm 339.0 W/m2
14:07 -2.8 °F /  -19.3 °C -9.9 °F /  -23.3 °C 30.78in /  1042.2hPa West 12.7mph /  20.4km/h 12.7mph /  20.4km/h 71% 0.00in /  0mm 336.0 W/m2
14:12 -2.8 °F /  -19.3 °C -9.9 °F /  -23.3 °C 30.79in /  1042.5hPa WSW 9.2mph /  14.8km/h 9.2mph /  14.8km/h 71% 0.00in /  0mm 327.0 W/m2
14:13 -2.7 °F /  -19.3 °C -9.8 °F /  -23.2 °C 30.79in /  1042.5hPa West 5.8mph /  9.3km/h 5.8mph /  9.3km/h 71% 0.00in /  0mm 327.0 W/m2
14:18 -2.5 °F /  -19.2 °C -9.6 °F /  -23.1 °C 30.78in /  1042.2hPa WSW 9.2mph /  14.8km/h 9.2mph /  14.8km/h 71% 0.00in /  0mm 316.0 W/m2
14:23 -2.4 °F /  -19.1 °C -9.5 °F /  -23.1 °C 30.79in /  1042.5hPa WNW 5.8mph /  9.3km/h 5.8mph /  9.3km/h 71% 0.00in /  0mm 306.0 W/m2
14:24 -2.3 °F /  -19.1 °C -9.4 °F /  -23 °C 30.79in /  1042.5hPa West 9.0mph /  14.5km/h 9.0mph /  14.5km/h 71% 0.00in /  0mm 304.0 W/m2
14:25 -2.3 °F /  -19.1 °C -9.4 °F /  -23 °C 30.79in /  1042.5hPa West 9.2mph /  14.8km/h 9.2mph /  14.8km/h 71% 0.00in /  0mm 301.0 W/m2
14:29 -2.1 °F /  -18.9 °C -9.2 °F /  -22.9 °C 30.79in /  1042.5hPa WNW 8.1mph /  13km/h 8.1mph /  13km/h 71% 0.00in /  0mm 294.0 W/m2
14:34 -1.9 °F /  -18.8 °C -9.0 °F /  -22.8 °C 30.79in /  1042.5hPa WSW 10.4mph /  16.7km/h 10.4mph /  16.7km/h 71% 0.00in /  0mm 281.0 W/m2
14:37 -1.9 °F /  -18.8 °C -9.0 °F /  -22.8 °C 30.79in /  1042.5hPa West 11.5mph /  18.5km/h 11.5mph /  18.5km/h 71% 0.00in /  0mm 274.0 W/m2
14:42 -2.1 °F /  -18.9 °C -9.5 °F /  -23.1 °C 30.79in /  1042.5hPa West 11.5mph /  18.5km/h 11.5mph /  18.5km/h 70% 0.00in /  0mm 260.0 W/m2
14:43 -2.1 °F /  -18.9 °C -9.5 °F /  -23.1 °C 30.79in /  1042.5hPa West 11.5mph /  18.5km/h 11.5mph /  18.5km/h 70% 0.00in /  0mm 257.0 W/m2
14:45 -2.1 °F /  -18.9 °C -9.5 °F /  -23.1 °C 30.79in /  1042.5hPa West 9.2mph /  14.8km/h 9.2mph /  14.8km/h 70% 0.00in /  0mm 250.0 W/m2
14:48 -2.0 °F /  -18.9 °C -9.1 °F /  -22.8 °C 30.79in /  1042.5hPa WNW 11.5mph /  18.5km/h 11.5mph /  18.5km/h 71% 0.00in /  0mm 243.0 W/m2
14:52 -2.1 °F /  -18.9 °C -9.5 °F /  -23.1 °C 30.79in /  1042.5hPa West 9.2mph /  14.8km/h 9.2mph /  14.8km/h 70% 0.00in /  0mm 229.0 W/m2
15:01 -2.1 °F /  -18.9 °C -9.5 °F /  -23.1 °C 30.79in /  1042.5hPa WSW 9.2mph /  14.8km/h 9.2mph /  14.8km/h 70% 0.00in /  0mm 204.0 W/m2
15:03 -2.1 °F /  -18.9 °C -9.2 °F /  -22.9 °C 30.79in /  1042.5hPa WNW 11.5mph /  18.5km/h 11.5mph /  18.5km/h 71% 0.00in /  0mm 197.0 W/m2
15:08 -2.2 °F /  -19 °C -9.6 °F /  -23.1 °C 30.79in /  1042.5hPa SW 9.2mph /  14.8km/h 9.2mph /  14.8km/h 70% 0.00in /  0mm 181.0 W/m2
15:13 -2.5 °F /  -19.2 °C -9.9 °F /  -23.3 °C 30.79in /  1042.5hPa WSW 9.2mph /  14.8km/h 9.2mph /  14.8km/h 70% 0.00in /  0mm 163.0 W/m2
15:14 -2.5 °F /  -19.2 °C -9.9 °F /  -23.3 °C 30.79in /  1042.5hPa West 9.0mph /  14.5km/h 9.0mph /  14.5km/h 70% 0.00in /  0mm 163.0 W/m2
15:19 -2.7 °F /  -19.3 °C -10.1 °F /  -23.4 °C 30.79in /  1042.5hPa West 8.1mph /  13km/h 8.1mph /  13km/h 70% 0.00in /  0mm 144.0 W/m2
15:24 -2.9 °F /  -19.4 °C -10.3 °F /  -23.5 °C 30.79in /  1042.5hPa WSW 10.4mph /  16.7km/h 10.4mph /  16.7km/h 70% 0.00in /  0mm 130.0 W/m2
15:26 -3.0 °F /  -19.4 °C -10.4 °F /  -23.6 °C 30.79in /  1042.5hPa WSW 11.5mph /  18.5km/h 11.5mph /  18.5km/h 70% 0.00in /  0mm 127.0 W/m2
15:31 -3.1 °F /  -19.5 °C -10.2 °F /  -23.4 °C 30.80in /  1042.9hPa West 5.8mph /  9.3km/h 5.8mph /  9.3km/h 71% 0.00in /  0mm 109.0 W/m2
15:32 -3.1 °F /  -19.5 °C -10.2 °F /  -23.4 °C 30.79in /  1042.5hPa WSW 5.8mph /  9.3km/h 5.8mph /  9.3km/h 71% 0.00in /  0mm 109.0 W/m2
15:33 -3.1 °F /  -19.5 °C -10.2 °F /  -23.4 °C 30.79in /  1042.5hPa West 6.0mph /  9.7km/h 6.0mph /  9.7km/h 71% 0.00in /  0mm 105.0 W/m2
15:38 -3.5 °F /  -19.7 °C -10.6 °F /  -23.7 °C 30.79in /  1042.5hPa WSW 11.5mph /  18.5km/h 11.5mph /  18.5km/h 71% 0.00in /  0mm 90.0 W/m2
15:43 -4.0 °F /  -20 °C -11.0 °F /  -23.9 °C 30.80in /  1042.9hPa WSW 12.0mph /  19.3km/h 12.0mph /  19.3km/h 71% 0.00in /  0mm 25.0 W/m2
15:45 -4.1 °F /  -20.1 °C -10.9 °F /  -23.8 °C 30.79in /  1042.5hPa West 11.5mph /  18.5km/h 11.5mph /  18.5km/h 72% 0.00in /  0mm 23.0 W/m2
15:49 -4.3 °F /  -20.2 °C -11.0 °F /  -23.9 °C 30.80in /  1042.9hPa West 10.4mph /  16.7km/h 10.4mph /  16.7km/h 72% 0.00in /  0mm 23.0 W/m2
15:54 -4.3 °F /  -20.2 °C -11.0 °F /  -23.9 °C 30.80in /  1042.9hPa WSW 8.1mph /  13km/h 8.1mph /  13km/h 72% 0.00in /  0mm 21.0 W/m2
15:55 -4.3 °F /  -20.2 °C -11.0 °F /  -23.9 °C 30.80in /  1042.9hPa WSW 8.1mph /  13km/h 8.1mph /  13km/h 72% 0.00in /  0mm 21.0 W/m2
16:00 -4.4 °F /  -20.2 °C -10.9 °F /  -23.8 °C 30.80in /  1042.9hPa WSW 11.5mph /  18.5km/h 11.5mph /  18.5km/h 73% 0.00in /  0mm 19.0 W/m2
16:01 -4.4 °F /  -20.2 °C -10.9 °F /  -23.8 °C 30.80in /  1042.9hPa WSW 9.2mph /  14.8km/h 9.2mph /  14.8km/h 73% 0.00in /  0mm 18.0 W/m2
16:06 -4.4 °F /  -20.2 °C -10.9 °F /  -23.8 °C 30.80in /  1042.9hPa West 10.4mph /  16.7km/h 10.4mph /  16.7km/h 73% 0.00in /  0mm 16.0 W/m2
16:11 -4.5 °F /  -20.3 °C -11.0 °F /  -23.9 °C 30.80in /  1042.9hPa West 5.8mph /  9.3km/h 5.8mph /  9.3km/h 73% 0.00in /  0mm 14.0 W/m2
16:14 -4.6 °F /  -20.3 °C -11.1 °F /  -23.9 °C 30.80in /  1042.9hPa WSW 3.5mph /  5.6km/h 3.5mph /  5.6km/h 73% 0.00in /  0mm 12.0 W/m2
16:17 -4.6 °F /  -20.3 °C -11.1 °F /  -23.9 °C 30.81in /  1043.2hPa West 8.1mph /  13km/h 8.1mph /  13km/h 73% 0.00in /  0mm 12.0 W/m2
16:21 -4.8 °F /  -20.4 °C -11.3 °F /  -24.1 °C 30.81in /  1043.2hPa WSW 9.2mph /  14.8km/h 9.2mph /  14.8km/h 73% 0.00in /  0mm 11.0 W/m2
16:23 -4.8 °F /  -20.4 °C -11.3 °F /  -24.1 °C 30.80in /  1042.9hPa WSW 11.5mph /  18.5km/h 11.5mph /  18.5km/h 73% 0.00in /  0mm 9.0 W/m2
16:26 -5.0 °F /  -20.6 °C -11.4 °F /  -24.1 °C 30.80in /  1042.9hPa WSW 5.8mph /  9.3km/h 5.8mph /  9.3km/h 73% 0.00in /  0mm 7.0 W/m2
16:28 -5.1 °F /  -20.6 °C -11.5 °F /  -24.2 °C 30.81in /  1043.2hPa WSW 6.9mph /  11.1km/h 6.9mph /  11.1km/h 73% 0.00in /  0mm 7.0 W/m2
16:33 -5.4 °F /  -20.8 °C -11.8 °F /  -24.3 °C 30.80in /  1042.9hPa SW 6.9mph /  11.1km/h 6.9mph /  11.1km/h 73% 0.00in /  0mm 5.0 W/m2
16:38 -5.8 °F /  -21 °C -12.2 °F /  -24.6 °C 30.80in /  1042.9hPa WSW 6.9mph /  11.1km/h 6.9mph /  11.1km/h 73% 0.00in /  0mm 0.0 W/m2
16:40 -5.9 °F /  -21.1 °C -12.3 °F /  -24.6 °C 30.80in /  1042.9hPa West 8.0mph /  12.9km/h 8.0mph /  12.9km/h 73% 0.00in /  0mm 0.0 W/m2
16:45 -6.1 °F /  -21.2 °C -12.2 °F /  -24.6 °C 30.81in /  1043.2hPa West 6.0mph /  9.7km/h 6.0mph /  9.7km/h 74% 0.00in /  0mm 0.0 W/m2
16:48 -6.1 °F /  -21.2 °C -12.2 °F /  -24.6 °C 30.81in /  1043.2hPa WSW 8.1mph /  13km/h 8.1mph /  13km/h 74% 0.00in /  0mm 0.0 W/m2
16:53 -6.3 °F /  -21.3 °C -12.4 °F /  -24.7 °C 30.81in /  1043.2hPa WSW 8.1mph /  13km/h 8.1mph /  13km/h 74% 0.00in /  0mm 0.0 W/m2
16:56 -6.3 °F /  -21.3 °C -12.4 °F /  -24.7 °C 30.81in /  1043.2hPa West 5.8mph /  9.3km/h 5.8mph /  9.3km/h 74% 0.00in /  0mm 0.0 W/m2
17:01 -6.4 °F /  -21.3 °C -12.3 °F /  -24.6 °C 30.81in /  1043.2hPa WSW 8.1mph /  13km/h 8.1mph /  13km/h 75% 0.00in /  0mm 0.0 W/m2
17:02 -6.5 °F /  -21.4 °C -12.4 °F /  -24.7 °C 30.81in /  1043.2hPa WSW 7.0mph /  11.3km/h 7.0mph /  11.3km/h 75% 0.00in /  0mm 0.0 W/m2
17:07 -6.5 °F /  -21.4 °C -12.4 °F /  -24.7 °C 30.81in /  1043.2hPa WSW 5.8mph /  9.3km/h 5.8mph /  9.3km/h 75% 0.00in /  0mm 0.0 W/m2
17:12 -6.6 °F /  -21.4 °C -12.5 °F /  -24.7 °C 30.81in /  1043.2hPa West 6.9mph /  11.1km/h 6.9mph /  11.1km/h 75% 0.00in /  0mm 0.0 W/m2
17:13 -6.6 °F /  -21.4 °C -12.5 °F /  -24.7 °C 30.81in /  1043.2hPa West 6.9mph /  11.1km/h 6.9mph /  11.1km/h 75% 0.00in /  0mm 0.0 W/m2
17:18 -6.7 °F /  -21.5 °C -12.5 °F /  -24.7 °C 30.81in /  1043.2hPa West 6.9mph /  11.1km/h 6.9mph /  11.1km/h 75% 0.00in /  0mm 0.0 W/m2
17:19 -6.8 °F /  -21.6 °C -12.6 °F /  -24.8 °C 30.81in /  1043.2hPa West 3.5mph /  5.6km/h 3.5mph /  5.6km/h 75% 0.00in /  0mm 0.0 W/m2
17:21 -6.8 °F /  -21.6 °C -12.6 °F /  -24.8 °C 30.81in /  1043.2hPa WSW 5.0mph /  8km/h 5.0mph /  8km/h 75% 0.00in /  0mm 0.0 W/m2
17:26 -7.0 °F /  -21.7 °C -12.8 °F /  -24.9 °C 30.82in /  1043.6hPa West 8.1mph /  13km/h 8.1mph /  13km/h 75% 0.00in /  0mm 0.0 W/m2
17:29 -7.0 °F /  -21.7 °C -12.8 °F /  -24.9 °C 30.82in /  1043.6hPa West 4.6mph /  7.4km/h 4.6mph /  7.4km/h 75% 0.00in /  0mm 0.0 W/m2
17:33 -7.1 °F /  -21.7 °C -12.9 °F /  -24.9 °C 30.82in /  1043.6hPa West 4.6mph /  7.4km/h 4.6mph /  7.4km/h 75% 0.00in /  0mm 0.0 W/m2
17:37 -7.2 °F /  -21.8 °C -13.0 °F /  -25 °C 30.82in /  1043.6hPa WSW 6.0mph /  9.7km/h 6.0mph /  9.7km/h 75% 0.00in /  0mm 0.0 W/m2
17:38 -7.2 °F /  -21.8 °C -13.0 °F /  -25 °C 30.82in /  1043.6hPa WSW 6.9mph /  11.1km/h 6.9mph /  11.1km/h 75% 0.00in /  0mm 0.0 W/m2
17:43 -7.3 °F /  -21.8 °C -13.1 °F /  -25.1 °C 30.82in /  1043.6hPa West 6.9mph /  11.1km/h 6.9mph /  11.1km/h 75% 0.00in /  0mm 0.0 W/m2
17:48 -7.4 °F /  -21.9 °C -13.2 °F /  -25.1 °C 30.82in /  1043.6hPa West 4.6mph /  7.4km/h 4.6mph /  7.4km/h 75% 0.00in /  0mm 0.0 W/m2
17:49 -7.4 °F /  -21.9 °C -13.2 °F /  -25.1 °C 30.82in /  1043.6hPa West 4.6mph /  7.4km/h 4.6mph /  7.4km/h 75% 0.00in /  0mm 0.0 W/m2
17:54 -7.5 °F /  -21.9 °C -13.3 °F /  -25.2 °C 30.82in /  1043.6hPa West 4.6mph /  7.4km/h 4.6mph /  7.4km/h 75% 0.00in /  0mm 0.0 W/m2
17:57 -7.6 °F /  -22 °C -13.4 °F /  -25.2 °C 30.82in /  1043.6hPa West 3.5mph /  5.6km/h 3.5mph /  5.6km/h 75% 0.00in /  0mm 0.0 W/m2
18:00 -7.6 °F /  -22 °C -13.4 °F /  -25.2 °C 30.82in /  1043.6hPa West 4.6mph /  7.4km/h 4.6mph /  7.4km/h 75% 0.00in /  0mm 0.0 W/m2
18:03 -7.7 °F /  -22.1 °C -13.3 °F /  -25.2 °C 30.82in /  1043.6hPa West 5.0mph /  8km/h 5.0mph /  8km/h 76% 0.00in /  0mm 0.0 W/m2
18:05 -7.7 °F /  -22.1 °C -13.3 °F /  -25.2 °C 30.82in /  1043.6hPa West 4.6mph /  7.4km/h 4.6mph /  7.4km/h 76% 0.00in /  0mm 0.0 W/m2
18:10 -7.7 °F /  -22.1 °C -13.3 °F /  -25.2 °C 30.83in /  1043.9hPa West 4.6mph /  7.4km/h 4.6mph /  7.4km/h 76% 0.00in /  0mm 0.0 W/m2
18:12 -7.7 °F /  -22.1 °C -13.3 °F /  -25.2 °C 30.83in /  1043.9hPa West 4.6mph /  7.4km/h 4.6mph /  7.4km/h 76% 0.00in /  0mm 0.0 W/m2
18:14 -7.7 °F /  -22.1 °C -13.3 °F /  -25.2 °C 30.83in /  1043.9hPa West 3.5mph /  5.6km/h 3.5mph /  5.6km/h 76% 0.00in /  0mm 0.0 W/m2
18:17 -7.7 °F /  -22.1 °C -13.3 °F /  -25.2 °C 30.82in /  1043.6hPa West 5.8mph /  9.3km/h 5.8mph /  9.3km/h 76% 0.00in /  0mm 0.0 W/m2
18:20 -7.7 °F /  -22.1 °C -13.3 °F /  -25.2 °C 30.82in /  1043.6hPa West 5.8mph /  9.3km/h 5.8mph /  9.3km/h 76% 0.00in /  0mm 0.0 W/m2
18:23 -7.7 °F /  -22.1 °C -13.3 °F /  -25.2 °C 30.82in /  1043.6hPa West 6.9mph /  11.1km/h 6.9mph /  11.1km/h 76% 0.00in /  0mm 0.0 W/m2
18:27 -7.7 °F /  -22.1 °C -13.3 °F /  -25.2 °C 30.83in /  1043.9hPa West 4.6mph /  7.4km/h 4.6mph /  7.4km/h 76% 0.00in /  0mm 0.0 W/m2
18:28 -7.7 °F /  -22.1 °C -13.3 °F /  -25.2 °C 30.83in /  1043.9hPa West 3.5mph /  5.6km/h 3.5mph /  5.6km/h 76% 0.00in /  0mm 0.0 W/m2
18:33 -7.9 °F /  -22.2 °C -13.5 °F /  -25.3 °C 30.82in /  1043.6hPa West 3.0mph /  4.8km/h 3.0mph /  4.8km/h 76% 0.00in /  0mm 0.0 W/m2
18:34 -7.9 °F /  -22.2 °C -13.5 °F /  -25.3 °C 30.82in /  1043.6hPa West 4.6mph /  7.4km/h 4.6mph /  7.4km/h 76% 0.00in /  0mm 0.0 W/m2
18:39 -8.1 °F /  -22.3 °C -13.6 °F /  -25.3 °C 30.83in /  1043.9hPa West 5.8mph /  9.3km/h 5.8mph /  9.3km/h 76% 0.00in /  0mm 0.0 W/m2
18:40 -8.1 °F /  -22.3 °C -13.6 °F /  -25.3 °C 30.83in /  1043.9hPa West 5.8mph /  9.3km/h 5.8mph /  9.3km/h 76% 0.00in /  0mm 0.0 W/m2
18:45 -8.1 °F /  -22.3 °C -13.6 °F /  -25.3 °C 30.83in /  1043.9hPa West 9.2mph /  14.8km/h 9.2mph /  14.8km/h 76% 0.00in /  0mm 0.0 W/m2
18:50 -8.1 °F /  -22.3 °C -13.6 °F /  -25.3 °C 30.83in /  1043.9hPa West 6.9mph /  11.1km/h 6.9mph /  11.1km/h 76% 0.00in /  0mm 0.0 W/m2
18:51 -8.1 °F /  -22.3 °C -13.6 °F /  -25.3 °C 30.83in /  1043.9hPa West 6.9mph /  11.1km/h 6.9mph /  11.1km/h 76% 0.00in /  0mm 0.0 W/m2
18:56 -8.1 °F /  -22.3 °C -13.6 °F /  -25.3 °C 30.83in /  1043.9hPa West 5.8mph /  9.3km/h 5.8mph /  9.3km/h 76% 0.00in /  0mm 0.0 W/m2
19:01 -8.2 °F /  -22.3 °C -13.7 °F /  -25.4 °C 30.82in /  1043.6hPa WSW 9.0mph /  14.5km/h 9.0mph /  14.5km/h 76% 0.00in /  0mm 0.0 W/m2
19:02 -8.2 °F /  -22.3 °C -13.7 °F /  -25.4 °C 30.82in /  1043.6hPa West 15.0mph /  24.1km/h 15.0mph /  24.1km/h 76% 0.00in /  0mm 0.0 W/m2
19:03 -8.2 °F /  -22.3 °C -13.7 °F /  -25.4 °C 30.82in /  1043.6hPa WSW 15.0mph /  24.1km/h 15.0mph /  24.1km/h 76% 0.00in /  0mm 0.0 W/m2
19:07 -8.1 °F /  -22.3 °C -13.9 °F /  -25.5 °C 30.82in /  1043.6hPa West 9.2mph /  14.8km/h 9.2mph /  14.8km/h 75% 0.00in /  0mm 0.0 W/m2
19:10 -8.1 °F /  -22.3 °C -13.9 °F /  -25.5 °C 30.82in /  1043.6hPa West 11.5mph /  18.5km/h 11.5mph /  18.5km/h 75% 0.00in /  0mm 0.0 W/m2
19:13 -8.2 °F /  -22.3 °C -14.0 °F /  -25.6 °C 30.82in /  1043.6hPa West 8.1mph /  13km/h 8.1mph /  13km/h 75% 0.00in /  0mm 0.0 W/m2
19:17 -8.4 °F /  -22.4 °C -14.2 °F /  -25.7 °C 30.82in /  1043.6hPa WSW 6.0mph /  9.7km/h 6.0mph /  9.7km/h 75% 0.00in /  0mm 0.0 W/m2
19:18 -8.4 °F /  -22.4 °C -13.9 °F /  -25.5 °C 30.82in /  1043.6hPa WSW 6.9mph /  11.1km/h 6.9mph /  11.1km/h 76% 0.00in /  0mm 0.0 W/m2
19:23 -8.4 °F /  -22.4 °C -13.9 °F /  -25.5 °C 30.82in /  1043.6hPa WSW 6.0mph /  9.7km/h 6.0mph /  9.7km/h 76% 0.00in /  0mm 0.0 W/m2
19:25 -8.5 °F /  -22.5 °C -14.0 °F /  -25.6 °C 30.82in /  1043.6hPa West 8.1mph /  13km/h 8.1mph /  13km/h 76% 0.00in /  0mm 0.0 W/m2
19:30 -8.5 °F /  -22.5 °C -14.0 °F /  -25.6 °C 30.82in /  1043.6hPa West 9.2mph /  14.8km/h 9.2mph /  14.8km/h 76% 0.00in /  0mm 0.0 W/m2
19:31 -8.5 °F /  -22.5 °C -14.0 °F /  -25.6 °C 30.82in /  1043.6hPa West 9.2mph /  14.8km/h 9.2mph /  14.8km/h 76% 0.00in /  0mm 0.0 W/m2
19:33 -8.5 °F /  -22.5 °C -13.8 °F /  -25.4 °C 30.82in /  1043.6hPa West 4.0mph /  6.4km/h 4.0mph /  6.4km/h 77% 0.00in /  0mm 0.0 W/m2
19:37 -8.6 °F /  -22.6 °C -13.9 °F /  -25.5 °C 30.82in /  1043.6hPa West 6.9mph /  11.1km/h 6.9mph /  11.1km/h 77% 0.00in /  0mm 0.0 W/m2
19:39 -8.7 °F /  -22.6 °C -14.0 °F /  -25.6 °C 30.82in /  1043.6hPa WSW 6.0mph /  9.7km/h 6.0mph /  9.7km/h 77% 0.00in /  0mm 0.0 W/m2
19:40 -8.8 °F /  -22.7 °C -14.1 °F /  -25.6 °C 30.82in /  1043.6hPa West 8.1mph /  13km/h 8.1mph /  13km/h 77% 0.00in /  0mm 0.0 W/m2
19:43 -8.7 °F /  -22.6 °C -14.0 °F /  -25.6 °C 30.82in /  1043.6hPa WSW 8.1mph /  13km/h 8.1mph /  13km/h 77% 0.00in /  0mm 0.0 W/m2
19:46 -8.8 °F /  -22.7 °C -14.1 °F /  -25.6 °C 30.82in /  1043.6hPa West 4.6mph /  7.4km/h 4.6mph /  7.4km/h 77% 0.00in /  0mm 0.0 W/m2
19:49 -8.7 °F /  -22.6 °C -14.0 °F /  -25.6 °C 30.82in /  1043.6hPa WSW 8.1mph /  13km/h 8.1mph /  13km/h 77% 0.00in /  0mm 0.0 W/m2
19:51 -8.7 °F /  -22.6 °C -14.0 °F /  -25.6 °C 30.82in /  1043.6hPa West 9.2mph /  14.8km/h 9.2mph /  14.8km/h 77% 0.00in /  0mm 0.0 W/m2
19:56 -8.6 °F /  -22.6 °C -13.6 °F /  -25.3 °C 30.82in /  1043.6hPa WSW 5.8mph /  9.3km/h 5.8mph /  9.3km/h 78% 0.00in /  0mm 0.0 W/m2
19:57 -8.6 °F /  -22.6 °C -13.6 °F /  -25.3 °C 30.82in /  1043.6hPa WSW 6.9mph /  11.1km/h 6.9mph /  11.1km/h 78% 0.00in /  0mm 0.0 W/m2
20:02 -8.9 °F /  -22.7 °C -14.2 °F /  -25.7 °C 30.82in /  1043.6hPa West 6.9mph /  11.1km/h 6.9mph /  11.1km/h 77% 0.00in /  0mm 0.0 W/m2
20:03 -9.0 °F /  -22.8 °C -14.3 °F /  -25.7 °C 30.82in /  1043.6hPa WSW 6.0mph /  9.7km/h 6.0mph /  9.7km/h 77% 0.00in /  0mm 0.0 W/m2
20:08 -9.3 °F /  -22.9 °C -14.6 °F /  -25.9 °C 30.82in /  1043.6hPa WSW 7.0mph /  11.3km/h 7.0mph /  11.3km/h 77% 0.00in /  0mm 0.0 W/m2
20:11 -9.4 °F /  -23 °C -14.7 °F /  -25.9 °C 30.82in /  1043.6hPa WSW 5.8mph /  9.3km/h 5.8mph /  9.3km/h 77% 0.00in /  0mm 0.0 W/m2
20:14 -9.5 °F /  -23.1 °C -14.5 °F /  -25.8 °C 30.82in /  1043.6hPa West 3.5mph /  5.6km/h 3.5mph /  5.6km/h 78% 0.00in /  0mm 0.0 W/m2
20:19 -9.6 °F /  -23.1 °C -14.6 °F /  -25.9 °C 30.82in /  1043.6hPa West 5.0mph /  8km/h 5.0mph /  8km/h 78% 0.00in /  0mm 0.0 W/m2
20:24 -9.6 °F /  -23.1 °C -14.6 °F /  -25.9 °C 30.82in /  1043.6hPa WNW 3.5mph /  5.6km/h 3.5mph /  5.6km/h 78% 0.00in /  0mm 0.0 W/m2
20:29 -9.5 °F /  -23.1 °C -14.5 °F /  -25.8 °C 30.82in /  1043.6hPa West 6.0mph /  9.7km/h 6.0mph /  9.7km/h 78% 0.00in /  0mm 0.0 W/m2
20:32 -9.4 °F /  -23 °C -14.4 °F /  -25.8 °C 30.82in /  1043.6hPa WNW 6.9mph /  11.1km/h 6.9mph /  11.1km/h 78% 0.00in /  0mm 0.0 W/m2
20:34 -9.4 °F /  -23 °C -14.4 °F /  -25.8 °C 30.82in /  1043.6hPa West 5.8mph /  9.3km/h 5.8mph /  9.3km/h 78% 0.00in /  0mm 0.0 W/m2
20:37 -9.2 °F /  -22.9 °C -13.9 °F /  -25.5 °C 30.82in /  1043.6hPa West 6.9mph /  11.1km/h 6.9mph /  11.1km/h 79% 0.00in /  0mm 0.0 W/m2
20:42 -9.1 °F /  -22.8 °C -14.1 °F /  -25.6 °C 30.82in /  1043.6hPa West 5.8mph /  9.3km/h 5.8mph /  9.3km/h 78% 0.00in /  0mm 0.0 W/m2
20:43 -9.1 °F /  -22.8 °C -14.1 °F /  -25.6 °C 30.82in /  1043.6hPa West 6.0mph /  9.7km/h 6.0mph /  9.7km/h 78% 0.00in /  0mm 0.0 W/m2
20:48 -9.1 °F /  -22.8 °C -14.1 °F /  -25.6 °C 30.82in /  1043.6hPa WNW 4.6mph /  7.4km/h 4.6mph /  7.4km/h 78% 0.00in /  0mm 0.0 W/m2
20:50 -9.1 °F /  -22.8 °C -14.1 °F /  -25.6 °C 30.82in /  1043.6hPa West 8.1mph /  13km/h 8.1mph /  13km/h 78% 0.00in /  0mm 0.0 W/m2
20:53 -9.1 °F /  -22.8 °C -14.1 °F /  -25.6 °C 30.82in /  1043.6hPa WSW 6.0mph /  9.7km/h 6.0mph /  9.7km/h 78% 0.00in /  0mm 0.0 W/m2
20:58 -9.0 °F /  -22.8 °C -14.0 °F /  -25.6 °C 30.82in /  1043.6hPa West 7.0mph /  11.3km/h 7.0mph /  11.3km/h 78% 0.00in /  0mm 0.0 W/m2
21:03 -9.0 °F /  -22.8 °C -14.0 °F /  -25.6 °C 30.82in /  1043.6hPa West 4.6mph /  7.4km/h 4.6mph /  7.4km/h 78% 0.00in /  0mm 0.0 W/m2
21:06 -9.0 °F /  -22.8 °C -14.3 °F /  -25.7 °C 30.82in /  1043.6hPa West 4.6mph /  7.4km/h 4.6mph /  7.4km/h 77% 0.00in /  0mm 0.0 W/m2
21:11 -9.1 °F /  -22.8 °C -14.4 °F /  -25.8 °C 30.82in /  1043.6hPa West 4.0mph /  6.4km/h 4.0mph /  6.4km/h 77% 0.00in /  0mm 0.0 W/m2
21:17 -9.1 °F /  -22.8 °C -14.1 °F /  -25.6 °C 30.81in /  1043.2hPa West 4.6mph /  7.4km/h 4.6mph /  7.4km/h 78% 0.00in /  0mm 0.0 W/m2
21:22 -9.0 °F /  -22.8 °C -14.0 °F /  -25.6 °C 30.81in /  1043.2hPa West 5.8mph /  9.3km/h 5.8mph /  9.3km/h 78% 0.00in /  0mm 0.0 W/m2
21:27 -8.9 °F /  -22.7 °C -13.9 °F /  -25.5 °C 30.81in /  1043.2hPa WNW 8.1mph /  13km/h 8.1mph /  13km/h 78% 0.00in /  0mm 0.0 W/m2
21:32 -8.8 °F /  -22.7 °C -13.8 °F /  -25.4 °C 30.81in /  1043.2hPa WSW 6.0mph /  9.7km/h 6.0mph /  9.7km/h 78% 0.00in /  0mm 0.0 W/m2
21:37 -8.7 °F /  -22.6 °C -14.0 °F /  -25.6 °C 30.82in /  1043.6hPa West 5.8mph /  9.3km/h 5.8mph /  9.3km/h 77% 0.00in /  0mm 0.0 W/m2
21:40 -8.8 °F /  -22.7 °C -14.1 °F /  -25.6 °C 30.81in /  1043.2hPa WSW 6.9mph /  11.1km/h 6.9mph /  11.1km/h 77% 0.00in /  0mm 0.0 W/m2
21:43 -8.9 °F /  -22.7 °C -14.2 °F /  -25.7 °C 30.81in /  1043.2hPa WSW 5.8mph /  9.3km/h 5.8mph /  9.3km/h 77% 0.00in /  0mm 0.0 W/m2
21:48 -9.3 °F /  -22.9 °C -14.6 °F /  -25.9 °C 30.82in /  1043.6hPa West 7.0mph /  11.3km/h 7.0mph /  11.3km/h 77% 0.00in /  0mm 0.0 W/m2
21:49 -9.3 °F /  -22.9 °C -14.6 °F /  -25.9 °C 30.81in /  1043.2hPa West 6.9mph /  11.1km/h 6.9mph /  11.1km/h 77% 0.00in /  0mm 0.0 W/m2
21:51 -9.5 °F /  -23.1 °C -14.7 °F /  -25.9 °C 30.82in /  1043.6hPa WSW 6.9mph /  11.1km/h 6.9mph /  11.1km/h 77% 0.00in /  0mm 0.0 W/m2
21:56 -9.5 °F /  -23.1 °C -14.7 °F /  -25.9 °C 30.81in /  1043.2hPa WSW 9.2mph /  14.8km/h 9.2mph /  14.8km/h 77% 0.00in /  0mm 0.0 W/m2
22:01 -9.6 °F /  -23.1 °C -14.8 °F /  -26 °C 30.82in /  1043.6hPa West 6.9mph /  11.1km/h 6.9mph /  11.1km/h 77% 0.00in /  0mm 0.0 W/m2
22:03 -9.6 °F /  -23.1 °C -14.6 °F /  -25.9 °C 30.81in /  1043.2hPa West 8.1mph /  13km/h 8.1mph /  13km/h 78% 0.00in /  0mm 0.0 W/m2
22:08 -9.6 °F /  -23.1 °C -14.6 °F /  -25.9 °C 30.81in /  1043.2hPa WSW 8.1mph /  13km/h 8.1mph /  13km/h 78% 0.00in /  0mm 0.0 W/m2
22:14 -9.5 °F /  -23.1 °C -14.5 °F /  -25.8 °C 30.81in /  1043.2hPa West 5.0mph /  8km/h 5.0mph /  8km/h 78% 0.00in /  0mm 0.0 W/m2
22:15 -9.5 °F /  -23.1 °C -14.5 °F /  -25.8 °C 30.81in /  1043.2hPa West 9.2mph /  14.8km/h 9.2mph /  14.8km/h 78% 0.00in /  0mm 0.0 W/m2
22:20 -9.5 °F /  -23.1 °C -14.5 °F /  -25.8 °C 30.81in /  1043.2hPa WSW 4.0mph /  6.4km/h 4.9mph /  7.9km/h 78% 0.00in /  0mm 0.0 W/m2
22:21 -9.5 °F /  -23.1 °C -14.5 °F /  -25.8 °C 30.81in /  1043.2hPa WSW 8.1mph /  13km/h 8.1mph /  13km/h 78% 0.00in /  0mm 0.0 W/m2
22:25 -9.5 °F /  -23.1 °C -14.5 °F /  -25.8 °C 30.81in /  1043.2hPa WSW 5.8mph /  9.3km/h 5.8mph /  9.3km/h 78% 0.00in /  0mm 0.0 W/m2
22:30 -9.6 °F /  -23.1 °C -14.6 °F /  -25.9 °C 30.81in /  1043.2hPa WSW 9.0mph /  14.5km/h 9.0mph /  14.5km/h 78% 0.00in /  0mm 0.0 W/m2
22:31 -9.6 °F /  -23.1 °C -14.6 °F /  -25.9 °C 30.81in /  1043.2hPa West 10.4mph /  16.7km/h 10.4mph /  16.7km/h 78% 0.00in /  0mm 0.0 W/m2
22:33 -9.6 °F /  -23.1 °C -14.6 °F /  -25.9 °C 30.81in /  1043.2hPa WSW 5.8mph /  9.3km/h 5.8mph /  9.3km/h 78% 0.00in /  0mm 0.0 W/m2
22:38 -9.8 °F /  -23.2 °C -14.8 °F /  -26 °C 30.81in /  1043.2hPa SW 5.0mph /  8km/h 5.0mph /  8km/h 78% 0.00in /  0mm 0.0 W/m2
22:42 -9.8 °F /  -23.2 °C -14.8 °F /  -26 °C 30.81in /  1043.2hPa WSW 8.1mph /  13km/h 8.1mph /  13km/h 78% 0.00in /  0mm 0.0 W/m2
22:44 -9.9 °F /  -23.3 °C -14.6 °F /  -25.9 °C 30.81in /  1043.2hPa WSW 6.0mph /  9.7km/h 6.0mph /  9.7km/h 79% 0.00in /  0mm 0.0 W/m2
22:48 -9.9 °F /  -23.3 °C -14.6 °F /  -25.9 °C 30.81in /  1043.2hPa WSW 5.8mph /  9.3km/h 5.8mph /  9.3km/h 79% 0.00in /  0mm 0.0 W/m2
22:50 -10.0 °F /  -23.3 °C -14.7 °F /  -25.9 °C 30.81in /  1043.2hPa West 7.0mph /  11.3km/h 7.0mph /  11.3km/h 79% 0.00in /  0mm 0.0 W/m2
22:55 -10.0 °F /  -23.3 °C -14.7 °F /  -25.9 °C 30.81in /  1043.2hPa West 8.1mph /  13km/h 8.1mph /  13km/h 79% 0.00in /  0mm 0.0 W/m2
22:58 -10.1 °F /  -23.4 °C -14.8 °F /  -26 °C 30.81in /  1043.2hPa WSW 3.5mph /  5.6km/h 3.5mph /  5.6km/h 79% 0.00in /  0mm 0.0 W/m2
23:00 -10.2 °F /  -23.4 °C -14.9 °F /  -26.1 °C 30.81in /  1043.2hPa WSW 4.6mph /  7.4km/h 4.6mph /  7.4km/h 79% 0.00in /  0mm 0.0 W/m2
23:05 -10.3 °F /  -23.5 °C -15.0 °F /  -26.1 °C 30.81in /  1043.2hPa West 4.6mph /  7.4km/h 4.6mph /  7.4km/h 79% 0.00in /  0mm 0.0 W/m2
23:06 -10.3 °F /  -23.5 °C -15.0 °F /  -26.1 °C 30.81in /  1043.2hPa West 2.3mph /  3.7km/h 2.3mph /  3.7km/h 79% 0.00in /  0mm 0.0 W/m2
23:11 -10.4 °F /  -23.6 °C -15.1 °F /  -26.2 °C 30.81in /  1043.2hPa West 4.6mph /  7.4km/h 4.6mph /  7.4km/h 79% 0.00in /  0mm 0.0 W/m2
23:12 -10.4 °F /  -23.6 °C -15.1 °F /  -26.2 °C 30.81in /  1043.2hPa West 2.3mph /  3.7km/h 2.3mph /  3.7km/h 79% 0.00in /  0mm 0.0 W/m2
23:14 -10.4 °F /  -23.6 °C -14.9 °F /  -26.1 °C 30.81in /  1043.2hPa West 4.0mph /  6.4km/h 4.0mph /  6.4km/h 80% 0.00in /  0mm 0.0 W/m2
23:19 -10.4 °F /  -23.6 °C -14.9 °F /  -26.1 °C 30.81in /  1043.2hPa WSW 4.0mph /  6.4km/h 4.0mph /  6.4km/h 80% 0.00in /  0mm 0.0 W/m2
23:21 -10.4 °F /  -23.6 °C -14.9 °F /  -26.1 °C 30.81in /  1043.2hPa WSW 5.8mph /  9.3km/h 5.8mph /  9.3km/h 80% 0.00in /  0mm 0.0 W/m2
23:23 -10.5 °F /  -23.6 °C -15.0 °F /  -26.1 °C 30.81in /  1043.2hPa West 5.8mph /  9.3km/h 5.8mph /  9.3km/h 80% 0.00in /  0mm 0.0 W/m2
23:26 -10.7 °F /  -23.7 °C -15.4 °F /  -26.3 °C 30.80in /  1042.9hPa WSW 5.8mph /  9.3km/h 5.8mph /  9.3km/h 79% 0.00in /  0mm 0.0 W/m2
23:31 -10.8 °F /  -23.8 °C -15.5 °F /  -26.4 °C 30.80in /  1042.9hPa WSW 8.1mph /  13km/h 8.1mph /  13km/h 79% 0.00in /  0mm 0.0 W/m2
23:32 -10.8 °F /  -23.8 °C -15.5 °F /  -26.4 °C 30.80in /  1042.9hPa West 9.2mph /  14.8km/h 9.2mph /  14.8km/h 79% 0.00in /  0mm 0.0 W/m2
23:33 -10.8 °F /  -23.8 °C -15.5 °F /  -26.4 °C 30.80in /  1042.9hPa WSW 6.9mph /  11.1km/h 6.9mph /  11.1km/h 79% 0.00in /  0mm 0.0 W/m2
23:38 -10.8 °F /  -23.8 °C -15.3 °F /  -26.3 °C 30.80in /  1042.9hPa WSW 5.8mph /  9.3km/h 5.8mph /  9.3km/h 80% 0.00in /  0mm 0.0 W/m2
23:41 -10.8 °F /  -23.8 °C -15.3 °F /  -26.3 °C 30.80in /  1042.9hPa West 5.8mph /  9.3km/h 5.8mph /  9.3km/h 80% 0.00in /  0mm 0.0 W/m2
23:44 -10.9 °F /  -23.8 °C -15.4 °F /  -26.3 °C 30.80in /  1042.9hPa West 4.6mph /  7.4km/h 4.6mph /  7.4km/h 80% 0.00in /  0mm 0.0 W/m2
23:46 -10.9 °F /  -23.8 °C -15.4 °F /  -26.3 °C 30.80in /  1042.9hPa West 4.6mph /  7.4km/h 4.6mph /  7.4km/h 80% 0.00in /  0mm 0.0 W/m2
23:49 -10.8 °F /  -23.8 °C -15.3 °F /  -26.3 °C 30.80in /  1042.9hPa West 6.0mph /  9.7km/h 6.0mph /  9.7km/h 80% 0.00in /  0mm 0.0 W/m2
23:54 -10.7 °F /  -23.7 °C -15.2 °F /  -26.2 °C 30.80in /  1042.9hPa West 5.0mph /  8km/h 5.0mph /  8km/h 80% 0.00in /  0mm 0.0 W/m2
23:55 -10.7 °F /  -23.7 °C -15.2 °F /  -26.2 °C 30.80in /  1042.9hPa West 6.9mph /  11.1km/h 6.9mph /  11.1km/h 80% 0.00in /  0mm 0.0 W/m2
Bourbonnais, Illinois, USA
Compliments of Weather Underground - 4 mb